| time (UTC) | temp F | wind direction | speed MPH | gust MPH | rain 1hr in | rain 24hr in | rain mn in | humidity % | barometer mb |
| 20260504151131 | 70 | 243 | 4.0 | 12.0 | 0.00 | 0.00 | 0.00 | 52 | 1012.5 |
| 20260504151034 | 70 | 212 | 5.0 | 12.0 | 0.00 | 0.00 | 0.00 | 52 | 1012.5 |
| 20260504150921 | 70 | 253 | 5.0 | 12.0 | 0.00 | 0.00 | 0.00 | 52 | 1012.5 |
| 20260504150850 | 70 | 261 | 6.0 | 12.0 | 0.00 | 0.00 | 0.00 | 52 | 1012.4 |
| 20260504150731 | 71 | 245 | 5.0 | 12.0 | 0.00 | 0.00 | 0.00 | 52 | 1012.4 |
| 20260504150641 | 71 | 233 | 4.0 | 12.0 | 0.00 | 0.00 | 0.00 | 52 | 1012.4 |
| 20260504150522 | 71 | 245 | 7.0 | 12.0 | 0.00 | 0.00 | 0.00 | 51 | 1012.3 |
| 20260504150444 | 71 | 281 | 6.0 | 12.0 | 0.00 | 0.00 | 0.00 | 52 | 1012.3 |
| 20260504150333 | 71 | 246 | 4.0 | 12.0 | 0.00 | 0.00 | 0.00 | 51 | 1012.3 |
| 20260504150238 | 71 | 255 | 4.0 | 12.0 | 0.00 | 0.00 | 0.00 | 51 | 1012.3 |
| 20260504150126 | 71 | 255 | 5.0 | 12.0 | 0.00 | 0.00 | 0.00 | 51 | 1012.3 |
| 20260504141219 | 72 | 240 | 1.0 | 3.0 | 0.00 | 0.00 | 0.00 | 45 | 1011.3 |
| 20260504141121 | 72 | 240 | 1.0 | 3.0 | 0.00 | 0.00 | 0.00 | 45 | 1011.3 |
| 20260504141023 | 72 | 240 | 0.0 | 3.0 | 0.00 | 0.00 | 0.00 | 45 | 1011.3 |
| 20260504140917 | 72 | 240 | 1.0 | 3.0 | 0.00 | 0.00 | 0.00 | 45 | 1011.3 |
| 20260504140819 | 72 | 240 | 1.0 | 3.0 | 0.00 | 0.00 | 0.00 | 45 | 1011.2 |
| 20260504140748 | 72 | 240 | 0.0 | 3.0 | 0.00 | 0.00 | 0.00 | 45 | 1011.2 |
| 20260504140629 | 72 | 240 | 0.0 | 3.0 | 0.00 | 0.00 | 0.00 | 45 | 1011.1 |
| 20260504140531 | 72 | 240 | 0.0 | 3.0 | 0.00 | 0.00 | 0.00 | 45 | 1011.1 |
| 20260504140440 | 72 | 240 | 1.0 | 3.0 | 0.00 | 0.00 | 0.00 | 44 | 1011.0 |
| 20260504140341 | 72 | 240 | 1.0 | 3.0 | 0.00 | 0.00 | 0.00 | 44 | 1011.0 |
| 20260504140252 | 72 | 240 | 1.0 | 8.0 | 0.00 | 0.00 | 0.00 | 44 | 1011.0 |
| 20260504140141 | 72 | 241 | 1.0 | 8.0 | 0.00 | 0.00 | 0.00 | 44 | 1011.0 |
| 20260504130716 | 72 | 210 | 0.0 | 0.0 | 0.00 | 0.00 | 0.00 | 41 | 1010.8 |
| 20260504130618 | 72 | 229 | 0.0 | 0.0 | 0.00 | 0.00 | 0.00 | 42 | 1010.8 |
| 20260504130547 | 72 | 229 | 0.0 | 0.0 | 0.00 | 0.00 | 0.00 | 42 | 1010.7 |
| 20260504130432 | 72 | 229 | 0.0 | 0.0 | 0.00 | 0.00 | 0.00 | 42 | 1010.7 |
| 20260504130318 | 72 | 229 | 0.0 | 0.0 | 0.00 | 0.00 | 0.00 | 43 | 1010.7 |
| 20260504130239 | 72 | 229 | 0.0 | 0.0 | 0.00 | 0.00 | 0.00 | 42 | 1010.7 |
| 20260504130126 | 72 | 228 | 0.0 | 0.0 | 0.00 | 0.00 | 0.00 | 42 | 1010.6 |
| 20260504120316 | 73 | 251 | 0.0 | 0.0 | 0.00 | 0.00 | 0.00 | 41 | 1010.2 |
| 20260504120219 | 73 | 251 | 0.0 | 0.0 | 0.00 | 0.00 | 0.00 | 41 | 1010.1 |
| 20260504120121 | 73 | 251 | 0.0 | 0.0 | 0.00 | 0.00 | 0.00 | 41 | 1010.1 |
| 20260504110633 | 73 | 254 | 0.0 | 1.0 | 0.00 | 0.00 | 0.00 | 40 | 1010.4 |
| 20260504110518 | 73 | 254 | 0.0 | 1.0 | 0.00 | 0.00 | 0.00 | 40 | 1010.3 |
| 20260504110440 | 73 | 254 | 0.0 | 1.0 | 0.00 | 0.00 | 0.00 | 40 | 1010.3 |
| 20260504110327 | 73 | 254 | 0.0 | 1.0 | 0.00 | 0.00 | 0.00 | 40 | 1010.3 |
| 20260504110229 | 73 | 254 | 0.0 | 1.0 | 0.00 | 0.00 | 0.00 | 40 | 1010.3 |
| 20260504110139 | 73 | 254 | 0.0 | 1.0 | 0.00 | 0.00 | 0.00 | 40 | 1010.3 |
| 20260504100520 | 74 | 255 | 0.0 | 0.0 | 0.00 | 0.00 | 0.00 | 40 | 1010.2 |
| 20260504100429 | 74 | 255 | 0.0 | 0.0 | 0.00 | 0.00 | 0.00 | 39 | 1010.1 |
| 20260504100329 | 74 | 255 | 0.0 | 0.0 | 0.00 | 0.00 | 0.00 | 40 | 1010.0 |
| 20260504100240 | 74 | 255 | 0.0 | 0.0 | 0.00 | 0.00 | 0.00 | 40 | 1010.0 |
| 20260504100125 | 74 | 255 | 0.0 | 0.0 | 0.00 | 0.00 | 0.00 | 40 | 1010.0 |
| 20260504081947 | 77 | 255 | 1.0 | 6.0 | 0.00 | 0.00 | 0.00 | 37 | 1009.6 |
| 20260504081835 | 77 | 255 | 1.0 | 6.0 | 0.00 | 0.00 | 0.00 | 37 | 1009.6 |
| 20260504081716 | 77 | 255 | 1.0 | 6.0 | 0.00 | 0.00 | 0.00 | 37 | 1009.7 |
| 20260504081623 | 77 | 255 | 1.0 | 6.0 | 0.00 | 0.00 | 0.00 | 37 | 1009.7 |
| 20260504081552 | 77 | 245 | 1.0 | 6.0 | 0.00 | 0.00 | 0.00 | 37 | 1009.7 |
| 20260504081433 | 77 | 245 | 1.0 | 7.0 | 0.00 | 0.00 | 0.00 | 37 | 1009.6 |
| 20260504081335 | 77 | 247 | 1.0 | 7.0 | 0.00 | 0.00 | 0.00 | 37 | 1009.7 |
| 20260504081217 | 77 | 253 | 1.0 | 7.0 | 0.00 | 0.00 | 0.00 | 37 | 1009.8 |
| 20260504081127 | 77 | 252 | 1.0 | 7.0 | 0.00 | 0.00 | 0.00 | 37 | 1009.8 |
| 20260504081029 | 77 | 253 | 1.0 | 7.0 | 0.00 | 0.00 | 0.00 | 37 | 1009.7 |
| 20260504080943 | 77 | 252 | 1.0 | 7.0 | 0.00 | 0.00 | 0.00 | 37 | 1009.7 |
| 20260504080843 | 77 | 253 | 1.0 | 7.0 | 0.00 | 0.00 | 0.00 | 37 | 1009.8 |
| 20260504080723 | 77 | 252 | 2.0 | 7.0 | 0.00 | 0.00 | 0.00 | 37 | 1009.7 |
| 20260504080632 | 78 | 252 | 1.0 | 5.0 | 0.00 | 0.00 | 0.00 | 36 | 1009.8 |
| 20260504080533 | 78 | 252 | 1.0 | 4.0 | 0.00 | 0.00 | 0.00 | 36 | 1009.7 |
| 20260504080359 | 78 | 252 | 1.0 | 4.0 | 0.00 | 0.00 | 0.00 | 36 | 1009.8 |
| 20260504080219 | 78 | 252 | 1.0 | 4.0 | 0.00 | 0.00 | 0.00 | 36 | 1009.7 |
| 20260504080122 | 78 | 252 | 1.0 | 4.0 | 0.00 | 0.00 | 0.00 | 36 | 1009.8 |
| 20260504070320 | 79 | 186 | 0.0 | 3.0 | 0.00 | 0.00 | 0.00 | 33 | 1009.7 |
| 20260504070230 | 79 | 186 | 0.0 | 3.0 | 0.00 | 0.00 | 0.00 | 33 | 1009.8 |
| 20260504070138 | 79 | 186 | 0.0 | 3.0 | 0.00 | 0.00 | 0.00 | 33 | 1009.8 |
| 20260504060243 | 80 | 184 | 0.0 | 2.0 | 0.00 | 0.00 | 0.00 | 31 | 1009.2 |
| 20260504060124 | 80 | 184 | 0.0 | 2.0 | 0.00 | 0.00 | 0.00 | 31 | 1009.3 |
| 20260504060105 | 80 | 184 | 0.0 | 2.0 | 0.00 | 0.00 | 0.00 | 31 | 1009.3 |
| 20260504050719 | 81 | 214 | 4.0 | 10.0 | 0.00 | 0.00 | 0.00 | 27 | 1009.2 |
| 20260504050620 | 81 | 214 | 5.0 | 10.0 | 0.00 | 0.00 | 0.00 | 27 | 1009.2 |
| 20260504050550 | 81 | 216 | 3.0 | 10.0 | 0.00 | 0.00 | 0.00 | 27 | 1009.3 |
| 20260504050431 | 81 | 215 | 2.0 | 11.0 | 0.00 | 0.00 | 0.00 | 27 | 1009.4 |
| 20260504050333 | 81 | 211 | 2.0 | 11.0 | 0.00 | 0.00 | 0.00 | 27 | 1009.4 |
| 20260504050221 | 81 | 205 | 2.0 | 11.0 | 0.00 | 0.00 | 0.00 | 27 | 1009.3 |
| 20260504050141 | 81 | 217 | 3.0 | 11.0 | 0.00 | 0.00 | 0.00 | 27 | 1009.3 |
| 20260504045935 | 81 | 226 | 2.0 | 11.0 | 0.00 | 0.00 | 0.00 | 27 | 1009.3 |
| 20260504045816 | 81 | 224 | 5.0 | 11.0 | 0.00 | 0.00 | 0.00 | 27 | 1009.3 |
| 20260504045726 | 81 | 226 | 5.0 | 11.0 | 0.00 | 0.00 | 0.00 | 26 | 1009.3 |
| 20260504045627 | 81 | 203 | 5.0 | 11.0 | 0.00 | 0.00 | 0.00 | 26 | 1009.2 |
| 20260504045529 | 81 | 241 | 4.0 | 11.0 | 0.00 | 0.00 | 0.00 | 26 | 1009.2 |
| 20260504045415 | 82 | 266 | 4.0 | 11.0 | 0.00 | 0.00 | 0.00 | 26 | 1009.1 |
| 20260504045324 | 81 | 184 | 4.0 | 11.0 | 0.00 | 0.00 | 0.00 | 26 | 1009.2 |
| 20260504045227 | 82 | 238 | 4.0 | 11.0 | 0.00 | 0.00 | 0.00 | 26 | 1009.1 |
| 20260504045129 | 82 | 215 | 5.0 | 11.0 | 0.00 | 0.00 | 0.00 | 26 | 1009.1 |
| 20260504045038 | 82 | 224 | 4.0 | 11.0 | 0.00 | 0.00 | 0.00 | 26 | 1009.0 |
| 20260504044918 | 82 | 224 | 3.0 | 10.0 | 0.00 | 0.00 | 0.00 | 26 | 1009.0 |
| 20260504044832 | 82 | 204 | 3.0 | 10.0 | 0.00 | 0.00 | 0.00 | 26 | 1009.1 |
| 20260504044735 | 82 | 205 | 2.0 | 10.0 | 0.00 | 0.00 | 0.00 | 26 | 1009.2 |
| 20260504044617 | 82 | 206 | 3.0 | 10.0 | 0.00 | 0.00 | 0.00 | 26 | 1009.3 |
| 20260504044519 | 82 | 202 | 4.0 | 10.0 | 0.00 | 0.00 | 0.00 | 26 | 1009.2 |
| 20260504044427 | 82 | 214 | 4.0 | 10.0 | 0.00 | 0.00 | 0.00 | 26 | 1009.2 |
| 20260504044329 | 82 | 203 | 4.0 | 10.0 | 0.00 | 0.00 | 0.00 | 26 | 1009.2 |
| 20260504044259 | 82 | 207 | 5.0 | 9.0 | 0.00 | 0.00 | 0.00 | 26 | 1009.2 |
| 20260504044143 | 82 | 248 | 5.0 | 9.0 | 0.00 | 0.00 | 0.00 | 26 | 1009.1 |
| 20260504044024 | 82 | 228 | 4.0 | 9.0 | 0.00 | 0.00 | 0.00 | 26 | 1009.1 |
| 20260504043933 | 82 | 216 | 4.0 | 9.0 | 0.00 | 0.00 | 0.00 | 25 | 1009.1 |
| 20260504043816 | 82 | 207 | 4.0 | 10.0 | 0.00 | 0.00 | 0.00 | 25 | 1009.2 |
| 20260504043718 | 82 | 190 | 2.0 | 14.0 | 0.00 | 0.00 | 0.00 | 25 | 1009.2 |
| 20260504043619 | 82 | 194 | 2.0 | 15.0 | 0.00 | 0.00 | 0.00 | 25 | 1009.2 |
| 20260504043532 | 82 | 193 | 4.0 | 15.0 | 0.00 | 0.00 | 0.00 | 25 | 1009.1 |
| 20260504043433 | 82 | 188 | 4.0 | 15.0 | 0.00 | 0.00 | 0.00 | 25 | 1009.2 |
| 20260504043316 | 82 | 203 | 3.0 | 15.0 | 0.00 | 0.00 | 0.00 | 25 | 1009.1 |
| 20260504043224 | 82 | 200 | 4.0 | 15.0 | 0.00 | 0.00 | 0.00 | 25 | 1009.0 |
| 20260504043125 | 82 | 211 | 4.0 | 15.0 | 0.00 | 0.00 | 0.00 | 25 | 1009.0 |
| 20260504043035 | 82 | 217 | 6.0 | 15.0 | 0.00 | 0.00 | 0.00 | 25 | 1009.0 |
| 20260504042920 | 82 | 229 | 8.0 | 15.0 | 0.00 | 0.00 | 0.00 | 25 | 1009.1 |
| 20260504042823 | 82 | 211 | 5.0 | 15.0 | 0.00 | 0.00 | 0.00 | 24 | 1009.0 |
| 20260504042725 | 82 | 224 | 5.0 | 14.0 | 0.00 | 0.00 | 0.00 | 24 | 1009.1 |
| 20260504042655 | 82 | 234 | 5.0 | 14.0 | 0.00 | 0.00 | 0.00 | 24 | 1009.1 |
| 20260504042543 | 82 | 221 | 6.0 | 14.0 | 0.00 | 0.00 | 0.00 | 24 | 1009.1 |
| 20260504042443 | 82 | 212 | 5.0 | 14.0 | 0.00 | 0.00 | 0.00 | 24 | 1009.1 |
| 20260504042325 | 82 | 217 | 7.0 | 14.0 | 0.00 | 0.00 | 0.00 | 24 | 1009.0 |
| 20260504042218 | 82 | 203 | 7.0 | 14.0 | 0.00 | 0.00 | 0.00 | 23 | 1009.1 |
| 20260504042147 | 82 | 257 | 6.0 | 12.0 | 0.00 | 0.00 | 0.00 | 23 | 1009.1 |
| 20260504042028 | 82 | 203 | 5.0 | 12.0 | 0.00 | 0.00 | 0.00 | 23 | 1009.0 |
| 20260504041931 | 82 | 209 | 4.0 | 12.0 | 0.00 | 0.00 | 0.00 | 23 | 1009.0 |
| 20260504041840 | 82 | 231 | 3.0 | 12.0 | 0.00 | 0.00 | 0.00 | 22 | 1009.0 |
| 20260504041722 | 83 | 221 | 0.0 | 13.0 | 0.00 | 0.00 | 0.00 | 22 | 1008.9 |
| 20260504041623 | 82 | 181 | 0.0 | 13.0 | 0.00 | 0.00 | 0.00 | 22 | 1008.9 |
| 20260504041530 | 83 | 237 | 0.0 | 13.0 | 0.00 | 0.00 | 0.00 | 22 | 1008.8 |
| 20260504041417 | 83 | 217 | 0.0 | 13.0 | 0.00 | 0.00 | 0.00 | 22 | 1008.8 |
| 20260504041317 | 83 | 185 | 1.0 | 13.0 | 0.00 | 0.00 | 0.00 | 22 | 1008.9 |
| 20260504041219 | 83 | 224 | 1.0 | 13.0 | 0.00 | 0.00 | 0.00 | 22 | 1008.9 |
| 20260504041128 | 83 | 192 | 3.0 | 13.0 | 0.00 | 0.00 | 0.00 | 22 | 1008.8 |
| 20260504041030 | 83 | 229 | 5.0 | 13.0 | 0.00 | 0.00 | 0.00 | 22 | 1008.8 |
| 20260504040917 | 83 | 224 | 6.0 | 13.0 | 0.00 | 0.00 | 0.00 | 22 | 1008.8 |
| 20260504040826 | 83 | 207 | 3.0 | 11.0 | 0.00 | 0.00 | 0.00 | 22 | 1008.7 |
| 20260504040729 | 83 | 222 | 1.0 | 12.0 | 0.00 | 0.00 | 0.00 | 22 | 1008.8 |
| 20260504040632 | 83 | 212 | 3.0 | 12.0 | 0.00 | 0.00 | 0.00 | 22 | 1008.7 |
| 20260504040541 | 83 | 228 | 6.0 | 12.0 | 0.00 | 0.00 | 0.00 | 22 | 1008.6 |
| 20260504040422 | 83 | 263 | 5.0 | 12.0 | 0.00 | 0.00 | 0.00 | 21 | 1008.7 |
| 20260504040329 | 83 | 227 | 3.0 | 12.0 | 0.00 | 0.00 | 0.00 | 21 | 1008.6 |
| 20260504040231 | 83 | 212 | 5.0 | 12.0 | 0.00 | 0.00 | 0.00 | 21 | 1008.7 |
| 20260504040140 | 83 | 238 | 7.0 | 12.0 | 0.00 | 0.00 | 0.00 | 21 | 1008.5 |
| 20260504040033 | 83 | 195 | 7.0 | 12.0 | 0.00 | 0.00 | 0.00 | 21 | 1008.4 |
| 20260504035930 | 83 | 243 | 6.0 | 12.0 | 0.00 | 0.00 | 0.00 | 21 | 1008.6 |
| 20260504035832 | 83 | 238 | 5.0 | 10.0 | 0.00 | 0.00 | 0.00 | 21 | 1008.5 |
| 20260504035738 | 83 | 193 | 5.0 | 10.0 | 0.00 | 0.00 | 0.00 | 21 | 1008.6 |
| 20260504035647 | 83 | 234 | 3.0 | 9.0 | 0.00 | 0.00 | 0.00 | 21 | 1008.5 |
| 20260504035534 | 83 | 212 | 3.0 | 9.0 | 0.00 | 0.00 | 0.00 | 21 | 1008.5 |
| 20260504035416 | 83 | 198 | 2.0 | 9.0 | 0.00 | 0.00 | 0.00 | 21 | 1008.6 |
| 20260504035318 | 83 | 183 | 3.0 | 9.0 | 0.00 | 0.00 | 0.00 | 21 | 1008.6 |
| 20260504035246 | 83 | 216 | 3.0 | 9.0 | 0.00 | 0.00 | 0.00 | 21 | 1008.6 |
| 20260504035127 | 83 | 269 | 2.0 | 9.0 | 0.00 | 0.00 | 0.00 | 21 | 1008.5 |
| 20260504035030 | 83 | 226 | 1.0 | 6.0 | 0.00 | 0.00 | 0.00 | 21 | 1008.4 |
| 20260504034922 | 83 | 212 | 0.0 | 2.0 | 0.00 | 0.00 | 0.00 | 21 | 1008.4 |
| 20260504034821 | 83 | 211 | 0.0 | 1.0 | 0.00 | 0.00 | 0.00 | 21 | 1008.5 |
| 20260504034722 | 83 | 211 | 0.0 | 1.0 | 0.00 | 0.00 | 0.00 | 21 | 1008.5 |
| 20260504034632 | 83 | 211 | 0.0 | 1.0 | 0.00 | 0.00 | 0.00 | 21 | 1008.4 |
| 20260504034533 | 83 | 224 | 0.0 | 1.0 | 0.00 | 0.00 | 0.00 | 21 | 1008.4 |
| 20260504034420 | 83 | 246 | 0.0 | 5.0 | 0.00 | 0.00 | 0.00 | 20 | 1008.4 |
| 20260504034322 | 83 | 208 | 0.0 | 5.0 | 0.00 | 0.00 | 0.00 | 21 | 1008.4 |
| 20260504034232 | 83 | 211 | 0.0 | 5.0 | 0.00 | 0.00 | 0.00 | 20 | 1008.3 |
| 20260504034135 | 83 | 207 | 0.0 | 5.0 | 0.00 | 0.00 | 0.00 | 20 | 1008.3 |
| 20260504034037 | 83 | 222 | 0.0 | 5.0 | 0.00 | 0.00 | 0.00 | 20 | 1008.3 |
| 20260504033924 | 84 | 245 | 0.0 | 5.0 | 0.00 | 0.00 | 0.00 | 20 | 1008.3 |
| 20260504033847 | 84 | 246 | 0.0 | 5.0 | 0.00 | 0.00 | 0.00 | 20 | 1008.3 |
| 20260504033738 | 84 | 224 | 1.0 | 5.0 | 0.00 | 0.00 | 0.00 | 20 | 1008.3 |
| 20260504033618 | 84 | 229 | 1.0 | 5.0 | 0.00 | 0.00 | 0.00 | 20 | 1008.2 |
| 20260504033526 | 84 | 221 | 0.0 | 2.0 | 0.00 | 0.00 | 0.00 | 20 | 1008.3 |
| 20260504033429 | 84 | 247 | 0.0 | 2.0 | 0.00 | 0.00 | 0.00 | 20 | 1008.3 |
| 20260504033332 | 84 | 224 | 0.0 | 4.0 | 0.00 | 0.00 | 0.00 | 20 | 1008.1 |
| 20260504033240 | 84 | 240 | 0.0 | 5.0 | 0.00 | 0.00 | 0.00 | 20 | 1008.2 |
| 20260504033126 | 84 | 232 | 0.0 | 5.0 | 0.00 | 0.00 | 0.00 | 20 | 1008.1 |
| 20260504033028 | 84 | 256 | 0.0 | 5.0 | 0.00 | 0.00 | 0.00 | 20 | 1008.1 |
| 20260504032957 | 84 | 209 | 0.0 | 5.0 | 0.00 | 0.00 | 0.00 | 20 | 1008.1 |
| 20260504032818 | 84 | 222 | 0.0 | 11.0 | 0.00 | 0.00 | 0.00 | 20 | 1008.1 |
| 20260504032720 | 84 | 204 | 0.0 | 11.0 | 0.00 | 0.00 | 0.00 | 20 | 1008.1 |
| 20260504032623 | 84 | 241 | 0.0 | 11.0 | 0.00 | 0.00 | 0.00 | 20 | 1008.0 |
| 20260504032532 | 84 | 235 | 1.0 | 11.0 | 0.00 | 0.00 | 0.00 | 20 | 1007.9 |
| 20260504032419 | 84 | 202 | 0.0 | 11.0 | 0.00 | 0.00 | 0.00 | 20 | 1008.0 |
| 20260504032321 | 84 | 186 | 0.0 | 11.0 | 0.00 | 0.00 | 0.00 | 19 | 1007.9 |
| 20260504032223 | 84 | 241 | 0.0 | 12.0 | 0.00 | 0.00 | 0.00 | 19 | 1007.9 |
| 20260504032131 | 85 | 203 | 2.0 | 12.0 | 0.00 | 0.00 | 0.00 | 19 | 1007.8 |
| 20260504032033 | 85 | 192 | 5.0 | 12.0 | 0.00 | 0.00 | 0.00 | 19 | 1007.8 |
| 20260504031942 | 85 | 239 | 6.0 | 17.0 | 0.00 | 0.00 | 0.00 | 19 | 1007.8 |
| 20260504031828 | 85 | 231 | 5.0 | 17.0 | 0.00 | 0.00 | 0.00 | 19 | 1007.8 |
| 20260504031729 | 85 | 248 | 5.0 | 17.0 | 0.00 | 0.00 | 0.00 | 19 | 1007.8 |
| 20260504031618 | 85 | 199 | 6.0 | 17.0 | 0.00 | 0.00 | 0.00 | 18 | 1007.7 |
| 20260504031520 | 85 | 243 | 6.0 | 17.0 | 0.00 | 0.00 | 0.00 | 18 | 1007.7 |
| 20260504031428 | 85 | 254 | 5.0 | 17.0 | 0.00 | 0.00 | 0.00 | 18 | 1007.8 |
| 20260504031330 | 85 | 235 | 5.0 | 17.0 | 0.00 | 0.00 | 0.00 | 18 | 1007.8 |
| 20260504031216 | 85 | 233 | 5.0 | 17.0 | 0.00 | 0.00 | 0.00 | 17 | 1007.7 |
| 20260504031118 | 85 | 228 | 2.0 | 17.0 | 0.00 | 0.00 | 0.00 | 17 | 1007.7 |
| 20260504031026 | 85 | 228 | 1.0 | 17.0 | 0.00 | 0.00 | 0.00 | 17 | 1007.6 |
| 20260504030926 | 85 | 231 | 3.0 | 17.0 | 0.00 | 0.00 | 0.00 | 17 | 1007.7 |
| 20260504030828 | 85 | 256 | 3.0 | 17.0 | 0.00 | 0.00 | 0.00 | 17 | 1007.7 |
| 20260504030737 | 85 | 215 | 2.0 | 17.0 | 0.00 | 0.00 | 0.00 | 17 | 1007.7 |
| 20260504030623 | 85 | 224 | 6.0 | 17.0 | 0.00 | 0.00 | 0.00 | 17 | 1007.7 |
| 20260504030551 | 85 | 233 | 6.0 | 17.0 | 0.00 | 0.00 | 0.00 | 17 | 1007.7 |
| 20260504030433 | 85 | 260 | 4.0 | 15.0 | 0.00 | 0.00 | 0.00 | 17 | 1007.5 |
| 20260504030334 | 85 | 230 | 5.0 | 15.0 | 0.00 | 0.00 | 0.00 | 18 | 1007.5 |
| 20260504030222 | 85 | 263 | 6.0 | 15.0 | 0.00 | 0.00 | 0.00 | 18 | 1007.4 |
| 20260504030124 | 85 | 217 | 7.0 | 15.0 | 0.00 | 0.00 | 0.00 | 18 | 1007.5 |
| 20260504030043 | 86 | 219 | 5.0 | 15.0 | 0.00 | 0.00 | 0.00 | 18 | 1007.5 |
| 20260504025916 | 86 | 186 | 1.0 | 15.0 | 0.00 | 0.00 | 0.00 | 18 | 1007.3 |
| 20260504025845 | 86 | 247 | 1.0 | 15.0 | 0.00 | 0.00 | 0.00 | 18 | 1007.3 |
| 20260504025726 | 86 | 195 | 4.0 | 15.0 | 0.00 | 0.00 | 0.00 | 18 | 1007.3 |
| 20260504025628 | 86 | 251 | 5.0 | 15.0 | 0.00 | 0.00 | 0.00 | 17 | 1007.1 |
| 20260504025538 | 86 | 214 | 4.0 | 12.0 | 0.00 | 0.00 | 0.00 | 17 | 1007.1 |
| 20260504025420 | 86 | 251 | 1.0 | 12.0 | 0.00 | 0.00 | 0.00 | 18 | 1007.1 |
| 20260504025321 | 86 | 252 | 1.0 | 12.0 | 0.00 | 0.00 | 0.00 | 17 | 1007.1 |
| 20260504025254 | 86 | 219 | 3.0 | 12.0 | 0.00 | 0.00 | 0.00 | 17 | 1007.2 |
| 20260504025115 | 86 | 248 | 7.0 | 12.0 | 0.00 | 0.00 | 0.00 | 17 | 1007.2 |
| 20260504025017 | 86 | 210 | 5.0 | 12.0 | 0.00 | 0.00 | 0.00 | 17 | 1007.2 |
| 20260504024927 | 86 | 241 | 5.0 | 12.0 | 0.00 | 0.00 | 0.00 | 17 | 1007.2 |
| 20260504024829 | 86 | 183 | 6.0 | 13.0 | 0.00 | 0.00 | 0.00 | 17 | 1007.2 |
| 20260504024735 | 86 | 203 | 8.0 | 13.0 | 0.00 | 0.00 | 0.00 | 17 | 1007.3 |
| 20260504024637 | 86 | 205 | 4.0 | 13.0 | 0.00 | 0.00 | 0.00 | 17 | 1007.3 |
| 20260504024521 | 86 | 259 | 0.0 | 13.0 | 0.00 | 0.00 | 0.00 | 17 | 1007.2 |
| 20260504024429 | 86 | 223 | 0.0 | 13.0 | 0.00 | 0.00 | 0.00 | 17 | 1007.2 |
| 20260504024331 | 86 | 234 | 0.0 | 13.0 | 0.00 | 0.00 | 0.00 | 17 | 1007.1 |
| 20260504024241 | 86 | 209 | 1.0 | 13.0 | 0.00 | 0.00 | 0.00 | 17 | 1007.1 |
| 20260504024134 | 86 | 216 | 3.0 | 13.0 | 0.00 | 0.00 | 0.00 | 17 | 1007.2 |
| 20260504024035 | 86 | 226 | 6.0 | 13.0 | 0.00 | 0.00 | 0.00 | 17 | 1007.0 |
| 20260504023945 | 86 | 204 | 6.0 | 13.0 | 0.00 | 0.00 | 0.00 | 17 | 1007.0 |
| 20260504023849 | 86 | 213 | 5.0 | 17.0 | 0.00 | 0.00 | 0.00 | 17 | 1007.0 |
| 20260504023716 | 86 | 223 | 5.0 | 17.0 | 0.00 | 0.00 | 0.00 | 17 | 1006.9 |
| 20260504023645 | 86 | 219 | 6.0 | 17.0 | 0.00 | 0.00 | 0.00 | 17 | 1006.9 |
| 20260504023526 | 86 | 223 | 6.0 | 17.0 | 0.00 | 0.00 | 0.00 | 17 | 1006.9 |
| 20260504023428 | 87 | 211 | 6.0 | 17.0 | 0.00 | 0.00 | 0.00 | 17 | 1006.9 |
| 20260504023337 | 87 | 241 | 7.0 | 17.0 | 0.00 | 0.00 | 0.00 | 17 | 1006.9 |
| 20260504023218 | 87 | 226 | 8.0 | 17.0 | 0.00 | 0.00 | 0.00 | 17 | 1006.9 |
| 20260504023123 | 87 | 195 | 8.0 | 17.0 | 0.00 | 0.00 | 0.00 | 17 | 1006.8 |
| 20260504023033 | 87 | 245 | 8.0 | 17.0 | 0.00 | 0.00 | 0.00 | 17 | 1006.8 |
| 20260504022953 | 87 | 217 | 6.0 | 13.0 | 0.00 | 0.00 | 0.00 | 16 | 1006.7 |
| 20260504022819 | 87 | 224 | 4.0 | 13.0 | 0.00 | 0.00 | 0.00 | 16 | 1006.7 |
| 20260504022750 | 87 | 257 | 3.0 | 13.0 | 0.00 | 0.00 | 0.00 | 16 | 1006.6 |
| 20260504022650 | 87 | 212 | 4.0 | 13.0 | 0.00 | 0.00 | 0.00 | 16 | 1006.6 |
| 20260504022538 | 87 | 238 | 5.0 | 14.0 | 0.00 | 0.00 | 0.00 | 16 | 1006.5 |
| 20260504022419 | 87 | 227 | 7.0 | 15.0 | 0.00 | 0.00 | 0.00 | 16 | 1006.7 |
| 20260504022325 | 87 | 207 | 8.0 | 15.0 | 0.00 | 0.00 | 0.00 | 16 | 1006.6 |
| 20260504022233 | 87 | 228 | 7.0 | 15.0 | 0.00 | 0.00 | 0.00 | 16 | 1006.6 |
| 20260504022133 | 87 | 257 | 4.0 | 15.0 | 0.00 | 0.00 | 0.00 | 16 | 1006.7 |
| 20260504022015 | 87 | 243 | 3.0 | 15.0 | 0.00 | 0.00 | 0.00 | 16 | 1006.6 |
| 20260504021944 | 87 | 215 | 4.0 | 15.0 | 0.00 | 0.00 | 0.00 | 16 | 1006.5 |
| 20260504021824 | 87 | 220 | 4.0 | 15.0 | 0.00 | 0.00 | 0.00 | 15 | 1006.7 |
| 20260504021734 | 87 | 209 | 6.0 | 15.0 | 0.00 | 0.00 | 0.00 | 15 | 1006.6 |
| 20260504021621 | 87 | 200 | 7.0 | 15.0 | 0.00 | 0.00 | 0.00 | 16 | 1006.7 |
| 20260504021550 | 88 | 197 | 8.0 | 12.0 | 0.00 | 0.00 | 0.00 | 15 | 1006.6 |
| 20260504021428 | 88 | 241 | 7.0 | 12.0 | 0.00 | 0.00 | 0.00 | 15 | 1006.7 |
| 20260504021316 | 88 | 229 | 4.0 | 11.0 | 0.00 | 0.00 | 0.00 | 15 | 1006.6 |
| 20260504021217 | 88 | 248 | 4.0 | 10.0 | 0.00 | 0.00 | 0.00 | 15 | 1006.5 |
| 20260504021120 | 88 | 243 | 5.0 | 10.0 | 0.00 | 0.00 | 0.00 | 15 | 1006.5 |
| 20260504021022 | 88 | 271 | 4.0 | 10.0 | 0.00 | 0.00 | 0.00 | 15 | 1006.4 |
| 20260504020923 | 88 | 224 | 4.0 | 10.0 | 0.00 | 0.00 | 0.00 | 15 | 1006.5 |
| 20260504020834 | 88 | 238 | 5.0 | 12.0 | 0.00 | 0.00 | 0.00 | 15 | 1006.4 |
| 20260504020728 | 88 | 204 | 4.0 | 12.0 | 0.00 | 0.00 | 0.00 | 15 | 1006.3 |
| 20260504020637 | 88 | 207 | 4.0 | 12.0 | 0.00 | 0.00 | 0.00 | 15 | 1006.3 |
| 20260504020520 | 88 | 207 | 4.0 | 12.0 | 0.00 | 0.00 | 0.00 | 14 | 1006.3 |
| 20260504020422 | 88 | 215 | 4.0 | 12.0 | 0.00 | 0.00 | 0.00 | 14 | 1006.4 |
| 20260504020351 | 88 | 220 | 4.0 | 12.0 | 0.00 | 0.00 | 0.00 | 14 | 1006.4 |
| 20260504020254 | 88 | 220 | 6.0 | 12.0 | 0.00 | 0.00 | 0.00 | 14 | 1006.5 |
| 20260504020118 | 88 | 243 | 5.0 | 12.0 | 0.00 | 0.00 | 0.00 | 14 | 1006.5 |
| 20260504020031 | 88 | 208 | 3.0 | 12.0 | 0.00 | 0.00 | 0.00 | 14 | 1006.5 |
| 20260504015928 | 88 | 221 | 3.0 | 13.0 | 0.00 | 0.00 | 0.00 | 14 | 1006.5 |
| 20260504015831 | 88 | 220 | 3.0 | 13.0 | 0.00 | 0.00 | 0.00 | 14 | 1006.4 |
| 20260504015759 | 88 | 198 | 4.0 | 14.0 | 0.00 | 0.00 | 0.00 | 14 | 1006.5 |
| 20260504015619 | 88 | 210 | 5.0 | 14.0 | 0.00 | 0.00 | 0.00 | 14 | 1006.4 |
| 20260504015525 | 88 | 210 | 5.0 | 14.0 | 0.00 | 0.00 | 0.00 | 14 | 1006.4 |
| 20260504015427 | 89 | 232 | 7.0 | 14.0 | 0.00 | 0.00 | 0.00 | 14 | 1006.2 |
| 20260504015356 | 89 | 236 | 7.0 | 16.0 | 0.00 | 0.00 | 0.00 | 14 | 1006.1 |
| 20260504015217 | 89 | 257 | 7.0 | 16.0 | 0.00 | 0.00 | 0.00 | 14 | 1006.0 |
| 20260504015119 | 89 | 214 | 6.0 | 16.0 | 0.00 | 0.00 | 0.00 | 14 | 1006.1 |
| 20260504015026 | 89 | 265 | 6.0 | 16.0 | 0.00 | 0.00 | 0.00 | 14 | 1006.0 |
| 20260504014935 | 89 | 230 | 7.0 | 16.0 | 0.00 | 0.00 | 0.00 | 14 | 1006.0 |
| 20260504014821 | 89 | 198 | 6.0 | 16.0 | 0.00 | 0.00 | 0.00 | 14 | 1005.9 |
| 20260504014724 | 89 | 234 | 5.0 | 16.0 | 0.00 | 0.00 | 0.00 | 14 | 1006.0 |
| 20260504014633 | 89 | 205 | 6.0 | 17.0 | 0.00 | 0.00 | 0.00 | 14 | 1005.9 |
| 20260504014554 | 89 | 218 | 8.0 | 17.0 | 0.00 | 0.00 | 0.00 | 14 | 1005.9 |
| 20260504014442 | 89 | 217 | 7.0 | 17.0 | 0.00 | 0.00 | 0.00 | 15 | 1005.9 |
| 20260504014323 | 89 | 221 | 7.0 | 17.0 | 0.00 | 0.00 | 0.00 | 15 | 1005.9 |
| 20260504014225 | 89 | 214 | 8.0 | 17.0 | 0.00 | 0.00 | 0.00 | 15 | 1006.0 |
| 20260504014159 | 89 | 220 | 9.0 | 17.0 | 0.00 | 0.00 | 0.00 | 15 | 1006.0 |
| 20260504014019 | 89 | 212 | 8.0 | 17.0 | 0.00 | 0.00 | 0.00 | 15 | 1006.0 |
| 20260504013941 | 89 | 216 | 7.0 | 17.0 | 0.00 | 0.00 | 0.00 | 15 | 1005.8 |
| 20260504013827 | 89 | 232 | 9.0 | 17.0 | 0.00 | 0.00 | 0.00 | 15 | 1005.8 |
| 20260504013750 | 89 | 214 | 9.0 | 16.0 | 0.00 | 0.00 | 0.00 | 15 | 1005.8 |
| 20260504013639 | 89 | 228 | 8.0 | 16.0 | 0.00 | 0.00 | 0.00 | 15 | 1005.8 |
| 20260504013519 | 89 | 199 | 7.0 | 16.0 | 0.00 | 0.00 | 0.00 | 15 | 1005.9 |
| 20260504013424 | 90 | 217 | 6.0 | 15.0 | 0.00 | 0.00 | 0.00 | 15 | 1005.8 |
| 20260504013353 | 90 | 252 | 7.0 | 15.0 | 0.00 | 0.00 | 0.00 | 15 | 1005.8 |
| 20260504013240 | 90 | 244 | 6.0 | 15.0 | 0.00 | 0.00 | 0.00 | 15 | 1005.8 |
| 20260504013142 | 90 | 210 | 7.0 | 15.0 | 0.00 | 0.00 | 0.00 | 15 | 1005.8 |
| 20260504013050 | 90 | 236 | 9.0 | 15.0 | 0.00 | 0.00 | 0.00 | 15 | 1005.8 |
| 20260504012931 | 90 | 245 | 8.0 | 15.0 | 0.00 | 0.00 | 0.00 | 15 | 1005.8 |
| 20260504012833 | 90 | 217 | 6.0 | 15.0 | 0.00 | 0.00 | 0.00 | 16 | 1005.8 |
| 20260504012718 | 90 | 246 | 5.0 | 12.0 | 0.00 | 0.00 | 0.00 | 16 | 1005.8 |
| 20260504012627 | 90 | 225 | 4.0 | 12.0 | 0.00 | 0.00 | 0.00 | 16 | 1005.8 |
| 20260504012529 | 90 | 212 | 4.0 | 12.0 | 0.00 | 0.00 | 0.00 | 17 | 1005.8 |
| 20260504012432 | 90 | 207 | 4.0 | 12.0 | 0.00 | 0.00 | 0.00 | 17 | 1005.9 |
| 20260504012340 | 90 | 221 | 5.0 | 12.0 | 0.00 | 0.00 | 0.00 | 17 | 1005.8 |
| 20260504012223 | 90 | 210 | 6.0 | 12.0 | 0.00 | 0.00 | 0.00 | 17 | 1005.8 |
| 20260504012129 | 90 | 176 | 6.0 | 17.0 | 0.00 | 0.00 | 0.00 | 17 | 1005.8 |
| 20260504012031 | 90 | 207 | 5.0 | 17.0 | 0.00 | 0.00 | 0.00 | 17 | 1005.8 |
| 20260504011940 | 90 | 178 | 4.0 | 17.0 | 0.00 | 0.00 | 0.00 | 17 | 1005.8 |
| 20260504011823 | 90 | 202 | 3.0 | 17.0 | 0.00 | 0.00 | 0.00 | 17 | 1005.8 |
| 20260504011725 | 90 | 218 | 4.0 | 17.0 | 0.00 | 0.00 | 0.00 | 17 | 1005.8 |
| 20260504011627 | 90 | 255 | 6.0 | 17.0 | 0.00 | 0.00 | 0.00 | 17 | 1005.7 |
| 20260504011539 | 90 | 213 | 6.0 | 17.0 | 0.00 | 0.00 | 0.00 | 17 | 1005.8 |
| 20260504011420 | 91 | 224 | 7.0 | 17.0 | 0.00 | 0.00 | 0.00 | 17 | 1005.8 |
| 20260504011328 | 91 | 221 | 9.0 | 17.0 | 0.00 | 0.00 | 0.00 | 17 | 1005.8 |
| 20260504011230 | 91 | 220 | 6.0 | 13.0 | 0.00 | 0.00 | 0.00 | 16 | 1005.9 |
| 20260504011138 | 91 | 248 | 5.0 | 14.0 | 0.00 | 0.00 | 0.00 | 16 | 1005.9 |
| 20260504011019 | 91 | 210 | 5.0 | 15.0 | 0.00 | 0.00 | 0.00 | 16 | 1005.9 |
| 20260504010927 | 91 | 209 | 5.0 | 15.0 | 0.00 | 0.00 | 0.00 | 16 | 1005.9 |
| 20260504010848 | 91 | 231 | 5.0 | 15.0 | 0.00 | 0.00 | 0.00 | 16 | 1005.9 |
| 20260504010740 | 91 | 210 | 4.0 | 15.0 | 0.00 | 0.00 | 0.00 | 16 | 1005.9 |
| 20260504010622 | 91 | 214 | 7.0 | 15.0 | 0.00 | 0.00 | 0.00 | 16 | 1005.9 |
| 20260504010531 | 91 | 256 | 7.0 | 15.0 | 0.00 | 0.00 | 0.00 | 16 | 1005.9 |
| 20260504010432 | 91 | 236 | 8.0 | 15.0 | 0.00 | 0.00 | 0.00 | 16 | 1005.9 |
| 20260504010343 | 91 | 218 | 10.0 | 15.0 | 0.00 | 0.00 | 0.00 | 16 | 1005.9 |
| 20260504010225 | 92 | 219 | 9.0 | 16.0 | 0.00 | 0.00 | 0.00 | 16 | 1005.9 |
| 20260504010126 | 92 | 236 | 8.0 | 16.0 | 0.00 | 0.00 | 0.00 | 16 | 1005.9 |
| 20260504010053 | 92 | 255 | 8.0 | 16.0 | 0.00 | 0.00 | 0.00 | 16 | 1005.9 |
| 20260504005921 | 92 | 209 | 8.0 | 16.0 | 0.00 | 0.00 | 0.00 | 15 | 1005.9 |
| 20260504005849 | 92 | 210 | 6.0 | 18.0 | 0.00 | 0.00 | 0.00 | 15 | 1005.9 |
| 20260504005731 | 92 | 263 | 5.0 | 18.0 | 0.00 | 0.00 | 0.00 | 15 | 1005.9 |
| 20260504005659 | 92 | 260 | 6.0 | 18.0 | 0.00 | 0.00 | 0.00 | 15 | 1006.0 |
| 20260504005539 | 92 | 248 | 9.0 | 18.0 | 0.00 | 0.00 | 0.00 | 15 | 1005.9 |
| 20260504005420 | 92 | 235 | 8.0 | 18.0 | 0.00 | 0.00 | 0.00 | 15 | 1005.8 |
| 20260504005332 | 92 | 255 | 7.0 | 18.0 | 0.00 | 0.00 | 0.00 | 15 | 1005.8 |
| 20260504005235 | 93 | 238 | 8.0 | 18.0 | 0.00 | 0.00 | 0.00 | 15 | 1005.8 |
| 20260504005116 | 93 | 243 | 8.0 | 18.0 | 0.00 | 0.00 | 0.00 | 15 | 1005.9 |
| 20260504005023 | 93 | 221 | 7.0 | 18.0 | 0.00 | 0.00 | 0.00 | 15 | 1005.8 |
| 20260504004925 | 93 | 226 | 5.0 | 16.0 | 0.00 | 0.00 | 0.00 | 15 | 1005.9 |
| 20260504004827 | 93 | 203 | 4.0 | 15.0 | 0.00 | 0.00 | 0.00 | 15 | 1005.9 |
| 20260504004755 | 93 | 248 | 5.0 | 15.0 | 0.00 | 0.00 | 0.00 | 15 | 1005.9 |
| 20260504004620 | 93 | 248 | 5.0 | 15.0 | 0.00 | 0.00 | 0.00 | 15 | 1005.9 |
| 20260504004531 | 93 | 200 | 6.0 | 15.0 | 0.00 | 0.00 | 0.00 | 15 | 1005.9 |
| 20260504004431 | 93 | 207 | 7.0 | 15.0 | 0.00 | 0.00 | 0.00 | 15 | 1005.9 |
| 20260504004318 | 93 | 240 | 6.0 | 17.0 | 0.00 | 0.00 | 0.00 | 15 | 1006.0 |
| 20260504004220 | 93 | 231 | 7.0 | 17.0 | 0.00 | 0.00 | 0.00 | 15 | 1006.0 |
| 20260504004150 | 93 | 251 | 9.0 | 17.0 | 0.00 | 0.00 | 0.00 | 15 | 1006.0 |
| 20260504003920 | 93 | 214 | 8.0 | 17.0 | 0.00 | 0.00 | 0.00 | 15 | 1006.0 |
| 20260504003821 | 93 | 212 | 8.0 | 17.0 | 0.00 | 0.00 | 0.00 | 15 | 1006.1 |
| 20260504003731 | 93 | 230 | 8.0 | 17.0 | 0.00 | 0.00 | 0.00 | 15 | 1006.2 |
| 20260504003633 | 93 | 240 | 11.0 | 17.0 | 0.00 | 0.00 | 0.00 | 14 | 1006.2 |
| 20260504003534 | 93 | 287 | 9.0 | 17.0 | 0.00 | 0.00 | 0.00 | 14 | 1006.2 |
| 20260504003417 | 93 | 209 | 3.0 | 16.0 | 0.00 | 0.00 | 0.00 | 14 | 1006.1 |
| 20260504003329 | 93 | 227 | 2.0 | 16.0 | 0.00 | 0.00 | 0.00 | 14 | 1006.1 |
| 20260504003259 | 93 | 211 | 5.0 | 16.0 | 0.00 | 0.00 | 0.00 | 14 | 1006.0 |
| 20260504003117 | 93 | 222 | 7.0 | 16.0 | 0.00 | 0.00 | 0.00 | 14 | 1006.0 |
| 20260504003018 | 94 | 199 | 7.0 | 16.0 | 0.00 | 0.00 | 0.00 | 14 | 1005.9 |
| 20260504002948 | 94 | 216 | 7.0 | 16.0 | 0.00 | 0.00 | 0.00 | 14 | 1005.9 |
| 20260504002835 | 94 | 223 | 4.0 | 15.0 | 0.00 | 0.00 | 0.00 | 14 | 1006.0 |
| 20260504002717 | 94 | 206 | 4.0 | 15.0 | 0.00 | 0.00 | 0.00 | 14 | 1006.0 |
| 20260504002623 | 94 | 219 | 8.0 | 15.0 | 0.00 | 0.00 | 0.00 | 14 | 1005.9 |
| 20260504002552 | 94 | 235 | 8.0 | 15.0 | 0.00 | 0.00 | 0.00 | 14 | 1005.9 |
| 20260504002432 | 94 | 218 | 6.0 | 15.0 | 0.00 | 0.00 | 0.00 | 14 | 1006.0 |
| 20260504002333 | 94 | 207 | 6.0 | 15.0 | 0.00 | 0.00 | 0.00 | 14 | 1005.9 |
| 20260504002221 | 94 | 220 | 5.0 | 15.0 | 0.00 | 0.00 | 0.00 | 14 | 1005.8 |
| 20260504002123 | 94 | 205 | 6.0 | 15.0 | 0.00 | 0.00 | 0.00 | 14 | 1005.8 |
| 20260504002025 | 94 | 160 | 8.0 | 16.0 | 0.00 | 0.00 | 0.00 | 14 | 1005.8 |
| 20260504001919 | 94 | 234 | 9.0 | 16.0 | 0.00 | 0.00 | 0.00 | 14 | 1005.8 |
| 20260504001820 | 94 | 235 | 8.0 | 16.0 | 0.00 | 0.00 | 0.00 | 14 | 1005.8 |
| 20260504001723 | 94 | 224 | 8.0 | 16.0 | 0.00 | 0.00 | 0.00 | 14 | 1005.9 |
| 20260504001632 | 94 | 201 | 9.0 | 16.0 | 0.00 | 0.00 | 0.00 | 14 | 1005.9 |
| 20260504001534 | 94 | 245 | 7.0 | 16.0 | 0.00 | 0.00 | 0.00 | 14 | 1006.0 |
| 20260504001417 | 94 | 238 | 7.0 | 16.0 | 0.00 | 0.00 | 0.00 | 14 | 1005.9 |
| 20260504001322 | 94 | 217 | 8.0 | 16.0 | 0.00 | 0.00 | 0.00 | 14 | 1005.7 |
| 20260504001231 | 94 | 234 | 7.0 | 18.0 | 0.00 | 0.00 | 0.00 | 14 | 1005.8 |
| 20260504001133 | 94 | 213 | 8.0 | 18.0 | 0.00 | 0.00 | 0.00 | 14 | 1005.8 |
| 20260504001016 | 94 | 223 | 7.0 | 18.0 | 0.00 | 0.00 | 0.00 | 14 | 1005.7 |
| 20260504000917 | 94 | 244 | 7.0 | 18.0 | 0.00 | 0.00 | 0.00 | 13 | 1005.7 |
| 20260504000846 | 94 | 255 | 9.0 | 18.0 | 0.00 | 0.00 | 0.00 | 13 | 1005.8 |
| 20260504000732 | 94 | 233 | 9.0 | 18.0 | 0.00 | 0.00 | 0.00 | 14 | 1005.8 |
| 20260504000640 | 94 | 211 | 9.0 | 18.0 | 0.00 | 0.00 | 0.00 | 14 | 1005.8 |
| 20260504000522 | 95 | 200 | 10.0 | 18.0 | 0.00 | 0.00 | 0.00 | 13 | 1005.8 |
| 20260504000424 | 95 | 296 | 10.0 | 18.0 | 0.00 | 0.00 | 0.00 | 13 | 1005.8 |
| 20260504000334 | 95 | 236 | 8.0 | 18.0 | 0.00 | 0.00 | 0.00 | 13 | 1005.9 |
| 20260504000235 | 95 | 205 | 5.0 | 18.0 | 0.00 | 0.00 | 0.00 | 14 | 1005.8 |
| 20260504000120 | 95 | 242 | 5.0 | 18.0 | 0.00 | 0.00 | 0.00 | 14 | 1005.8 |
| 20260504000033 | 95 | 249 | 7.0 | 18.0 | 0.00 | 0.00 | 0.00 | 13 | 1005.9 |
| 20260503235932 | 95 | 197 | 6.0 | 18.0 | 0.00 | 0.00 | 0.00 | 13 | 1005.9 |
| 20260503235901 | 95 | 269 | 6.0 | 18.0 | 0.00 | 0.00 | 0.00 | 14 | 1005.9 |
| 20260503235740 | 95 | 245 | 8.0 | 18.0 | 0.00 | 0.00 | 0.00 | 13 | 1005.9 |
| 20260503235622 | 95 | 240 | 9.0 | 18.0 | 0.00 | 0.00 | 0.00 | 13 | 1006.0 |
| 20260503235528 | 95 | 224 | 8.0 | 18.0 | 0.00 | 0.00 | 0.00 | 13 | 1005.8 |
| 20260503235437 | 95 | 217 | 7.0 | 14.0 | 0.00 | 0.00 | 0.00 | 13 | 1005.9 |
| 20260503235319 | 95 | 238 | 7.0 | 14.0 | 0.00 | 0.00 | 0.00 | 13 | 1005.9 |
| 20260503235221 | 95 | 266 | 6.0 | 14.0 | 0.00 | 0.00 | 0.00 | 13 | 1005.8 |
| 20260503235021 | 95 | 220 | 7.0 | 16.0 | 0.00 | 0.00 | 0.00 | 13 | 1005.8 |
| 20260503234928 | 95 | 250 | 9.0 | 16.0 | 0.00 | 0.00 | 0.00 | 13 | 1005.8 |
| 20260503234835 | 95 | 245 | 9.0 | 16.0 | 0.00 | 0.00 | 0.00 | 13 | 1005.8 |
| 20260503234757 | 95 | 256 | 8.0 | 16.0 | 0.00 | 0.00 | 0.00 | 13 | 1005.9 |
| 20260503234618 | 95 | 244 | 7.0 | 16.0 | 0.00 | 0.00 | 0.00 | 13 | 1005.8 |
| 20260503234526 | 95 | 235 | 7.0 | 16.0 | 0.00 | 0.00 | 0.00 | 13 | 1005.8 |
| 20260503234428 | 95 | 209 | 7.0 | 16.0 | 0.00 | 0.00 | 0.00 | 13 | 1005.7 |
| 20260503234331 | 95 | 223 | 8.0 | 16.0 | 0.00 | 0.00 | 0.00 | 13 | 1005.8 |
| 20260503234243 | 96 | 213 | 8.0 | 16.0 | 0.00 | 0.00 | 0.00 | 13 | 1005.9 |
| 20260503234124 | 96 | 249 | 8.0 | 16.0 | 0.00 | 0.00 | 0.00 | 13 | 1005.9 |
| 20260503234054 | 96 | 250 | 7.0 | 16.0 | 0.00 | 0.00 | 0.00 | 13 | 1005.9 |
| 20260503233934 | 96 | 246 | 7.0 | 16.0 | 0.00 | 0.00 | 0.00 | 13 | 1005.8 |
| 20260503233816 | 95 | 229 | 8.0 | 16.0 | 0.00 | 0.00 | 0.00 | 13 | 1005.8 |
| 20260503233724 | 96 | 276 | 9.0 | 16.0 | 0.00 | 0.00 | 0.00 | 13 | 1005.7 |
| 20260503233626 | 96 | 242 | 9.0 | 19.0 | 0.00 | 0.00 | 0.00 | 13 | 1005.7 |
| 20260503233532 | 96 | 259 | 7.0 | 19.0 | 0.00 | 0.00 | 0.00 | 13 | 1005.7 |
| 20260503233441 | 96 | 263 | 5.0 | 19.0 | 0.00 | 0.00 | 0.00 | 13 | 1005.7 |
| 20260503233344 | 96 | 219 | 6.0 | 19.0 | 0.00 | 0.00 | 0.00 | 13 | 1005.7 |
| 20260503233226 | 96 | 236 | 7.0 | 19.0 | 0.00 | 0.00 | 0.00 | 13 | 1005.8 |
| 20260503233154 | 96 | 221 | 7.0 | 19.0 | 0.00 | 0.00 | 0.00 | 13 | 1005.8 |
| 20260503233016 | 96 | 232 | 5.0 | 19.0 | 0.00 | 0.00 | 0.00 | 14 | 1005.7 |
| 20260503232922 | 96 | 237 | 8.0 | 19.0 | 0.00 | 0.00 | 0.00 | 13 | 1005.7 |
| 20260503232832 | 96 | 216 | 9.0 | 19.0 | 0.00 | 0.00 | 0.00 | 13 | 1005.8 |
| 20260503232740 | 96 | 236 | 9.0 | 19.0 | 0.00 | 0.00 | 0.00 | 13 | 1005.7 |
| 20260503232640 | 96 | 235 | 8.0 | 14.0 | 0.00 | 0.00 | 0.00 | 13 | 1005.7 |
| 20260503232523 | 96 | 257 | 6.0 | 14.0 | 0.00 | 0.00 | 0.00 | 13 | 1005.7 |
| 20260503232424 | 96 | 240 | 8.0 | 14.0 | 0.00 | 0.00 | 0.00 | 13 | 1005.7 |
| 20260503232333 | 97 | 237 | 8.0 | 14.0 | 0.00 | 0.00 | 0.00 | 13 | 1005.8 |
| 20260503232219 | 96 | 245 | 5.0 | 14.0 | 0.00 | 0.00 | 0.00 | 13 | 1005.8 |
| 20260503232119 | 96 | 316 | 3.0 | 12.0 | 0.00 | 0.00 | 0.00 | 13 | 1005.7 |
| 20260503232026 | 96 | 319 | 3.0 | 13.0 | 0.00 | 0.00 | 0.00 | 13 | 1005.8 |
| 20260503231928 | 96 | 319 | 5.0 | 15.0 | 0.00 | 0.00 | 0.00 | 14 | 1005.9 |
| 20260503231856 | 96 | 243 | 5.0 | 15.0 | 0.00 | 0.00 | 0.00 | 13 | 1005.9 |
| 20260503231717 | 96 | 238 | 5.0 | 15.0 | 0.00 | 0.00 | 0.00 | 13 | 1005.8 |
| 20260503231620 | 96 | 243 | 6.0 | 15.0 | 0.00 | 0.00 | 0.00 | 13 | 1005.9 |
| 20260503231532 | 97 | 258 | 6.0 | 15.0 | 0.00 | 0.00 | 0.00 | 13 | 1005.9 |
| 20260503231415 | 97 | 255 | 4.0 | 15.0 | 0.00 | 0.00 | 0.00 | 13 | 1006.0 |
| 20260503231344 | 97 | 263 | 5.0 | 15.0 | 0.00 | 0.00 | 0.00 | 13 | 1006.0 |
| 20260503231223 | 97 | 238 | 8.0 | 15.0 | 0.00 | 0.00 | 0.00 | 12 | 1005.9 |
| 20260503231131 | 97 | 244 | 10.0 | 15.0 | 0.00 | 0.00 | 0.00 | 12 | 1006.0 |
| 20260503231034 | 97 | 215 | 7.0 | 15.0 | 0.00 | 0.00 | 0.00 | 12 | 1005.9 |
| 20260503230919 | 97 | 258 | 5.0 | 14.0 | 0.00 | 0.00 | 0.00 | 12 | 1005.8 |
| 20260503230821 | 97 | 229 | 6.0 | 14.0 | 0.00 | 0.00 | 0.00 | 12 | 1005.9 |
| 20260503230730 | 98 | 223 | 5.0 | 14.0 | 0.00 | 0.00 | 0.00 | 12 | 1005.8 |
| 20260503230630 | 98 | 178 | 6.0 | 14.0 | 0.00 | 0.00 | 0.00 | 12 | 1005.8 |
| 20260503230532 | 98 | 219 | 6.0 | 14.0 | 0.00 | 0.00 | 0.00 | 12 | 1005.7 |
| 20260503230442 | 98 | 199 | 6.0 | 14.0 | 0.00 | 0.00 | 0.00 | 12 | 1005.7 |
| 20260503230326 | 98 | 188 | 7.0 | 14.0 | 0.00 | 0.00 | 0.00 | 12 | 1005.7 |
| 20260503230247 | 98 | 240 | 4.0 | 11.0 | 0.00 | 0.00 | 0.00 | 12 | 1005.8 |
| 20260503230134 | 97 | 266 | 3.0 | 9.0 | 0.00 | 0.00 | 0.00 | 12 | 1005.9 |
| 20260503230117 | 97 | 271 | 3.0 | 9.0 | 0.00 | 0.00 | 0.00 | 12 | 1005.9 |
| 20260503225924 | 97 | 272 | 3.0 | 10.0 | 0.00 | 0.00 | 0.00 | 12 | 1005.9 |
| 20260503225826 | 97 | 269 | 4.0 | 10.0 | 0.00 | 0.00 | 0.00 | 12 | 1005.9 |
| 20260503225734 | 97 | 266 | 3.0 | 11.0 | 0.00 | 0.00 | 0.00 | 12 | 1005.9 |
| 20260503225620 | 97 | 260 | 4.0 | 11.0 | 0.00 | 0.00 | 0.00 | 12 | 1005.9 |
| 20260503225541 | 98 | 259 | 4.0 | 11.0 | 0.00 | 0.00 | 0.00 | 12 | 1006.0 |
| 20260503225429 | 98 | 274 | 3.0 | 11.0 | 0.00 | 0.00 | 0.00 | 12 | 1005.9 |
| 20260503225332 | 97 | 279 | 3.0 | 11.0 | 0.00 | 0.00 | 0.00 | 12 | 1005.9 |
| 20260503225241 | 97 | 277 | 5.0 | 11.0 | 0.00 | 0.00 | 0.00 | 12 | 1005.9 |
| 20260503225120 | 98 | 277 | 6.0 | 11.0 | 0.00 | 0.00 | 0.00 | 12 | 1005.9 |
| 20260503225050 | 98 | 278 | 6.0 | 11.0 | 0.00 | 0.00 | 0.00 | 12 | 1005.9 |
| 20260503224931 | 98 | 279 | 5.0 | 11.0 | 0.00 | 0.00 | 0.00 | 12 | 1006.1 |
| 20260503224816 | 98 | 285 | 4.0 | 10.0 | 0.00 | 0.00 | 0.00 | 12 | 1006.0 |
| 20260503224745 | 98 | 285 | 5.0 | 10.0 | 0.00 | 0.00 | 0.00 | 12 | 1006.2 |
| 20260503224627 | 98 | 287 | 5.0 | 10.0 | 0.00 | 0.00 | 0.00 | 12 | 1006.1 |
| 20260503224529 | 98 | 291 | 3.0 | 7.0 | 0.00 | 0.00 | 0.00 | 12 | 1006.2 |
| 20260503224437 | 98 | 293 | 2.0 | 7.0 | 0.00 | 0.00 | 0.00 | 13 | 1006.2 |
| 20260503224319 | 98 | 293 | 1.0 | 7.0 | 0.00 | 0.00 | 0.00 | 13 | 1006.3 |
| 20260503224225 | 97 | 292 | 0.0 | 7.0 | 0.00 | 0.00 | 0.00 | 13 | 1006.3 |
| 20260503224126 | 97 | 292 | 1.0 | 7.0 | 0.00 | 0.00 | 0.00 | 13 | 1006.2 |
| 20260503224035 | 97 | 292 | 1.0 | 7.0 | 0.00 | 0.00 | 0.00 | 13 | 1006.2 |
| 20260503223918 | 97 | 292 | 2.0 | 8.0 | 0.00 | 0.00 | 0.00 | 13 | 1006.3 |
| 20260503223820 | 97 | 292 | 2.0 | 8.0 | 0.00 | 0.00 | 0.00 | 12 | 1006.3 |
| 20260503223729 | 97 | 294 | 2.0 | 11.0 | 0.00 | 0.00 | 0.00 | 13 | 1006.3 |
| 20260503223631 | 97 | 287 | 2.0 | 11.0 | 0.00 | 0.00 | 0.00 | 13 | 1006.4 |
| 20260503223540 | 97 | 287 | 2.0 | 11.0 | 0.00 | 0.00 | 0.00 | 13 | 1006.4 |
| 20260503223420 | 97 | 287 | 4.0 | 11.0 | 0.00 | 0.00 | 0.00 | 12 | 1006.5 |
| 20260503223322 | 97 | 224 | 4.0 | 11.0 | 0.00 | 0.00 | 0.00 | 13 | 1006.4 |
| 20260503223232 | 97 | 220 | 4.0 | 11.0 | 0.00 | 0.00 | 0.00 | 12 | 1006.5 |
| 20260503223134 | 97 | 284 | 4.0 | 11.0 | 0.00 | 0.00 | 0.00 | 12 | 1006.5 |
| 20260503223042 | 97 | 248 | 4.0 | 11.0 | 0.00 | 0.00 | 0.00 | 13 | 1006.5 |
| 20260503222927 | 97 | 263 | 4.0 | 11.0 | 0.00 | 0.00 | 0.00 | 13 | 1006.4 |
| 20260503222830 | 97 | 244 | 3.0 | 10.0 | 0.00 | 0.00 | 0.00 | 12 | 1006.4 |
| 20260503222731 | 97 | 260 | 2.0 | 10.0 | 0.00 | 0.00 | 0.00 | 13 | 1006.4 |
| 20260503222642 | 97 | 300 | 3.0 | 12.0 | 0.00 | 0.00 | 0.00 | 13 | 1006.4 |
| 20260503222543 | 97 | 318 | 5.0 | 15.0 | 0.00 | 0.00 | 0.00 | 13 | 1006.5 |
| 20260503222451 | 98 | 248 | 6.0 | 15.0 | 0.00 | 0.00 | 0.00 | 13 | 1006.4 |
| 20260503222358 | 98 | 264 | 4.0 | 15.0 | 0.00 | 0.00 | 0.00 | 13 | 1006.4 |
| 20260503222223 | 98 | 291 | 4.0 | 15.0 | 0.00 | 0.00 | 0.00 | 13 | 1006.5 |
| 20260503222125 | 98 | 283 | 4.0 | 15.0 | 0.00 | 0.00 | 0.00 | 13 | 1006.5 |
| 20260503222027 | 97 | 293 | 4.0 | 15.0 | 0.00 | 0.00 | 0.00 | 13 | 1006.5 |
| 20260503221934 | 97 | 250 | 6.0 | 15.0 | 0.00 | 0.00 | 0.00 | 13 | 1006.6 |
| 20260503221816 | 98 | 265 | 8.0 | 15.0 | 0.00 | 0.00 | 0.00 | 13 | 1006.6 |
| 20260503221718 | 98 | 277 | 5.0 | 15.0 | 0.00 | 0.00 | 0.00 | 13 | 1006.6 |
| 20260503221632 | 98 | 276 | 3.0 | 13.0 | 0.00 | 0.00 | 0.00 | 13 | 1006.6 |
| 20260503221533 | 97 | 180 | 1.0 | 13.0 | 0.00 | 0.00 | 0.00 | 13 | 1006.6 |
| 20260503221503 | 97 | 261 | 2.0 | 13.0 | 0.00 | 0.00 | 0.00 | 15 | 1006.6 |
| 20260503221323 | 97 | 229 | 6.0 | 13.0 | 0.00 | 0.00 | 0.00 | 13 | 1006.7 |
| 20260503221225 | 97 | 248 | 6.0 | 13.0 | 0.00 | 0.00 | 0.00 | 13 | 1006.7 |
| 20260503221127 | 97 | 233 | 5.0 | 11.0 | 0.00 | 0.00 | 0.00 | 13 | 1006.7 |
| 20260503221036 | 97 | 226 | 6.0 | 11.0 | 0.00 | 0.00 | 0.00 | 13 | 1006.7 |
| 20260503220922 | 97 | 261 | 5.0 | 13.0 | 0.00 | 0.00 | 0.00 | 13 | 1006.7 |
| 20260503220832 | 97 | 236 | 3.0 | 13.0 | 0.00 | 0.00 | 0.00 | 13 | 1006.7 |
| 20260503220733 | 97 | 249 | 2.0 | 13.0 | 0.00 | 0.00 | 0.00 | 13 | 1006.6 |
| 20260503220634 | 97 | 249 | 2.0 | 13.0 | 0.00 | 0.00 | 0.00 | 12 | 1006.7 |
| 20260503220516 | 97 | 238 | 2.0 | 13.0 | 0.00 | 0.00 | 0.00 | 13 | 1006.7 |
| 20260503220425 | 97 | 238 | 4.0 | 13.0 | 0.00 | 0.00 | 0.00 | 13 | 1006.9 |
| 20260503220332 | 97 | 236 | 7.0 | 13.0 | 0.00 | 0.00 | 0.00 | 13 | 1006.8 |
| 20260503220240 | 97 | 257 | 8.0 | 13.0 | 0.00 | 0.00 | 0.00 | 12 | 1006.8 |
| 20260503220141 | 97 | 240 | 6.0 | 13.0 | 0.00 | 0.00 | 0.00 | 13 | 1006.8 |
| 20260503215956 | 97 | 236 | 6.0 | 13.0 | 0.00 | 0.00 | 0.00 | 13 | 1006.8 |
| 20260503215837 | 97 | 227 | 4.0 | 10.0 | 0.00 | 0.00 | 0.00 | 13 | 1006.8 |
| 20260503215718 | 97 | 263 | 4.0 | 10.0 | 0.00 | 0.00 | 0.00 | 13 | 1006.8 |
| 20260503215628 | 97 | 263 | 2.0 | 10.0 | 0.00 | 0.00 | 0.00 | 13 | 1006.8 |
| 20260503215534 | 97 | 264 | 2.0 | 10.0 | 0.00 | 0.00 | 0.00 | 13 | 1006.8 |
| 20260503215415 | 97 | 264 | 3.0 | 10.0 | 0.00 | 0.00 | 0.00 | 13 | 1006.8 |
| 20260503215318 | 97 | 250 | 4.0 | 10.0 | 0.00 | 0.00 | 0.00 | 13 | 1006.9 |
| 20260503215227 | 98 | 243 | 5.0 | 10.0 | 0.00 | 0.00 | 0.00 | 13 | 1007.0 |
| 20260503215129 | 98 | 215 | 5.0 | 10.0 | 0.00 | 0.00 | 0.00 | 13 | 1006.9 |
| 20260503215031 | 98 | 219 | 4.0 | 9.0 | 0.00 | 0.00 | 0.00 | 13 | 1007.0 |
| 20260503214916 | 98 | 218 | 4.0 | 9.0 | 0.00 | 0.00 | 0.00 | 13 | 1006.9 |
| 20260503214825 | 98 | 174 | 4.0 | 9.0 | 0.00 | 0.00 | 0.00 | 13 | 1007.0 |
| 20260503214726 | 98 | 216 | 3.0 | 9.0 | 0.00 | 0.00 | 0.00 | 13 | 1006.9 |
| 20260503214636 | 97 | 146 | 2.0 | 8.0 | 0.00 | 0.00 | 0.00 | 13 | 1007.0 |
| 20260503214518 | 98 | 233 | 3.0 | 8.0 | 0.00 | 0.00 | 0.00 | 13 | 1007.0 |
| 20260503214424 | 98 | 258 | 3.0 | 8.0 | 0.00 | 0.00 | 0.00 | 13 | 1006.9 |
| 20260503214331 | 98 | 259 | 2.0 | 8.0 | 0.00 | 0.00 | 0.00 | 13 | 1006.9 |
| 20260503214232 | 98 | 265 | 0.0 | 8.0 | 0.00 | 0.00 | 0.00 | 12 | 1006.8 |
| 20260503214141 | 98 | 193 | 0.0 | 10.0 | 0.00 | 0.00 | 0.00 | 14 | 1006.9 |
| 20260503214021 | 98 | 193 | 1.0 | 11.0 | 0.00 | 0.00 | 0.00 | 13 | 1007.0 |
| 20260503213921 | 98 | 193 | 3.0 | 11.0 | 0.00 | 0.00 | 0.00 | 13 | 1006.9 |
| 20260503213830 | 98 | 179 | 3.0 | 11.0 | 0.00 | 0.00 | 0.00 | 14 | 1007.0 |
| 20260503213731 | 98 | 188 | 4.0 | 11.0 | 0.00 | 0.00 | 0.00 | 13 | 1007.0 |
| 20260503213617 | 98 | 264 | 3.0 | 11.0 | 0.00 | 0.00 | 0.00 | 13 | 1007.0 |
| 20260503213519 | 98 | 259 | 3.0 | 11.0 | 0.00 | 0.00 | 0.00 | 13 | 1007.0 |
| 20260503213429 | 98 | 256 | 3.0 | 11.0 | 0.00 | 0.00 | 0.00 | 13 | 1007.0 |
| 20260503213331 | 98 | 156 | 3.0 | 11.0 | 0.00 | 0.00 | 0.00 | 14 | 1007.0 |
| 20260503213242 | 98 | 104 | 2.0 | 11.0 | 0.00 | 0.00 | 0.00 | 14 | 1007.0 |
| 20260503213127 | 98 | 161 | 2.0 | 11.0 | 0.00 | 0.00 | 0.00 | 13 | 1007.1 |
| 20260503213048 | 98 | 146 | 3.0 | 11.0 | 0.00 | 0.00 | 0.00 | 13 | 1007.0 |
| 20260503212936 | 98 | 212 | 3.0 | 11.0 | 0.00 | 0.00 | 0.00 | 14 | 1007.0 |
| 20260503212818 | 97 | 20 | 2.0 | 11.0 | 0.00 | 0.00 | 0.00 | 16 | 1007.0 |
| 20260503212719 | 97 | 53 | 1.0 | 6.0 | 0.00 | 0.00 | 0.00 | 15 | 1007.0 |
| 20260503212628 | 97 | 217 | 0.0 | 4.0 | 0.00 | 0.00 | 0.00 | 17 | 1007.2 |
| 20260503212550 | 97 | 222 | 0.0 | 6.0 | 0.00 | 0.00 | 0.00 | 14 | 1007.3 |
| 20260503212437 | 97 | 222 | 0.0 | 6.0 | 0.00 | 0.00 | 0.00 | 14 | 1007.4 |
| 20260503212322 | 97 | 222 | 0.0 | 6.0 | 0.00 | 0.00 | 0.00 | 14 | 1007.4 |
| 20260503212252 | 97 | 221 | 0.0 | 6.0 | 0.00 | 0.00 | 0.00 | 15 | 1007.5 |
| 20260503212017 | 97 | 165 | 1.0 | 6.0 | 0.00 | 0.00 | 0.00 | 13 | 1007.5 |
| 20260503211919 | 97 | 168 | 2.0 | 8.0 | 0.00 | 0.00 | 0.00 | 15 | 1007.5 |
| 20260503211828 | 97 | 169 | 2.0 | 8.0 | 0.00 | 0.00 | 0.00 | 15 | 1007.5 |
| 20260503211735 | 96 | 168 | 3.0 | 8.0 | 0.00 | 0.00 | 0.00 | 15 | 1007.6 |
| 20260503211643 | 96 | 165 | 2.0 | 8.0 | 0.00 | 0.00 | 0.00 | 14 | 1007.6 |
| 20260503211524 | 96 | 160 | 1.0 | 8.0 | 0.00 | 0.00 | 0.00 | 14 | 1007.5 |
| 20260503211424 | 96 | 158 | 2.0 | 8.0 | 0.00 | 0.00 | 0.00 | 14 | 1007.5 |
| 20260503211354 | 96 | 158 | 3.0 | 8.0 | 0.00 | 0.00 | 0.00 | 15 | 1007.6 |
| 20260503211241 | 96 | 158 | 2.0 | 8.0 | 0.00 | 0.00 | 0.00 | 14 | 1007.6 |
| 20260503211123 | 96 | 127 | 2.0 | 10.0 | 0.00 | 0.00 | 0.00 | 14 | 1007.6 |
| 20260503211046 | 96 | 127 | 4.0 | 10.0 | 0.00 | 0.00 | 0.00 | 14 | 1007.7 |
| 20260503210937 | 96 | 161 | 3.0 | 10.0 | 0.00 | 0.00 | 0.00 | 15 | 1007.7 |
| 20260503210839 | 96 | 140 | 4.0 | 10.0 | 0.00 | 0.00 | 0.00 | 14 | 1007.7 |
| 20260503210725 | 96 | 138 | 3.0 | 10.0 | 0.00 | 0.00 | 0.00 | 15 | 1007.7 |
| 20260503210626 | 96 | 146 | 2.0 | 10.0 | 0.00 | 0.00 | 0.00 | 15 | 1007.8 |
| 20260503210535 | 96 | 151 | 3.0 | 10.0 | 0.00 | 0.00 | 0.00 | 15 | 1007.8 |
| 20260503210417 | 96 | 150 | 4.0 | 10.0 | 0.00 | 0.00 | 0.00 | 14 | 1007.9 |
| 20260503210323 | 96 | 141 | 4.0 | 9.0 | 0.00 | 0.00 | 0.00 | 15 | 1007.8 |
| 20260503210225 | 96 | 175 | 3.0 | 9.0 | 0.00 | 0.00 | 0.00 | 15 | 1007.9 |
| 20260503210134 | 96 | 143 | 4.0 | 9.0 | 0.00 | 0.00 | 0.00 | 15 | 1007.9 |
| 20260503210028 | 96 | 143 | 3.0 | 7.0 | 0.00 | 0.00 | 0.00 | 15 | 1007.9 |
| 20260503205919 | 96 | 147 | 3.0 | 7.0 | 0.00 | 0.00 | 0.00 | 15 | 1007.9 |
| 20260503205848 | 96 | 146 | 3.0 | 7.0 | 0.00 | 0.00 | 0.00 | 14 | 1007.8 |
| 20260503205728 | 96 | 153 | 2.0 | 6.0 | 0.00 | 0.00 | 0.00 | 15 | 1007.7 |
| 20260503205642 | 96 | 170 | 2.0 | 6.0 | 0.00 | 0.00 | 0.00 | 14 | 1007.7 |
| 20260503205524 | 96 | 178 | 1.0 | 14.0 | 0.00 | 0.00 | 0.00 | 15 | 1007.9 |
| 20260503205426 | 97 | 178 | 2.0 | 15.0 | 0.00 | 0.00 | 0.00 | 15 | 1007.9 |
| 20260503205324 | 97 | 179 | 2.0 | 15.0 | 0.00 | 0.00 | 0.00 | 14 | 1007.9 |
| 20260503205253 | 97 | 184 | 1.0 | 15.0 | 0.00 | 0.00 | 0.00 | 15 | 1008.0 |
| 20260503205201 | 97 | 183 | 2.0 | 15.0 | 0.00 | 0.00 | 0.00 | 15 | 1008.0 |
| 20260503205020 | 97 | 183 | 2.0 | 15.0 | 0.00 | 0.00 | 0.00 | 15 | 1008.1 |
| 20260503204925 | 96 | 160 | 2.0 | 15.0 | 0.00 | 0.00 | 0.00 | 15 | 1008.1 |
| 20260503204835 | 96 | 160 | 4.0 | 15.0 | 0.00 | 0.00 | 0.00 | 15 | 1008.2 |
| 20260503204717 | 96 | 212 | 6.0 | 15.0 | 0.00 | 0.00 | 0.00 | 14 | 1008.2 |
| 20260503204619 | 96 | 191 | 4.0 | 15.0 | 0.00 | 0.00 | 0.00 | 14 | 1008.2 |
| 20260503204521 | 96 | 174 | 2.0 | 11.0 | 0.00 | 0.00 | 0.00 | 15 | 1008.2 |
| 20260503204430 | 96 | 159 | 3.0 | 11.0 | 0.00 | 0.00 | 0.00 | 15 | 1008.2 |
| 20260503204317 | 96 | 147 | 4.0 | 11.0 | 0.00 | 0.00 | 0.00 | 15 | 1008.3 |
| 20260503204225 | 96 | 158 | 4.0 | 11.0 | 0.00 | 0.00 | 0.00 | 15 | 1008.3 |
| 20260503204126 | 96 | 154 | 4.0 | 11.0 | 0.00 | 0.00 | 0.00 | 15 | 1008.3 |
| 20260503204033 | 96 | 170 | 3.0 | 11.0 | 0.00 | 0.00 | 0.00 | 15 | 1008.4 |
| 20260503203934 | 96 | 179 | 4.0 | 11.0 | 0.00 | 0.00 | 0.00 | 14 | 1008.3 |
| 20260503203816 | 96 | 159 | 5.0 | 11.0 | 0.00 | 0.00 | 0.00 | 15 | 1008.3 |
| 20260503203745 | 95 | 158 | 4.0 | 10.0 | 0.00 | 0.00 | 0.00 | 15 | 1008.3 |
| 20260503203653 | 95 | 160 | 4.0 | 10.0 | 0.00 | 0.00 | 0.00 | 14 | 1008.3 |
| 20260503203517 | 96 | 163 | 4.0 | 10.0 | 0.00 | 0.00 | 0.00 | 14 | 1008.4 |
| 20260503203420 | 96 | 166 | 4.0 | 10.0 | 0.00 | 0.00 | 0.00 | 15 | 1008.3 |
| 20260503203321 | 95 | 84 | 4.0 | 10.0 | 0.00 | 0.00 | 0.00 | 15 | 1008.4 |
| 20260503203231 | 95 | 83 | 4.0 | 10.0 | 0.00 | 0.00 | 0.00 | 15 | 1008.3 |
| 20260503203132 | 95 | 82 | 2.0 | 9.0 | 0.00 | 0.00 | 0.00 | 15 | 1008.4 |
| 20260503203019 | 95 | 71 | 1.0 | 9.0 | 0.00 | 0.00 | 0.00 | 16 | 1008.2 |
| 20260503202949 | 95 | 69 | 2.0 | 13.0 | 0.00 | 0.00 | 0.00 | 15 | 1008.4 |
| 20260503202829 | 95 | 97 | 4.0 | 13.0 | 0.00 | 0.00 | 0.00 | 15 | 1008.5 |
| 20260503202738 | 96 | 134 | 4.0 | 13.0 | 0.00 | 0.00 | 0.00 | 14 | 1008.6 |
| 20260503202619 | 96 | 164 | 3.0 | 13.0 | 0.00 | 0.00 | 0.00 | 15 | 1008.6 |
| 20260503202522 | 96 | 162 | 3.0 | 14.0 | 0.00 | 0.00 | 0.00 | 15 | 1008.6 |
| 20260503202430 | 96 | 106 | 3.0 | 14.0 | 0.00 | 0.00 | 0.00 | 15 | 1008.6 |
| 20260503202316 | 96 | 139 | 3.0 | 14.0 | 0.00 | 0.00 | 0.00 | 15 | 1008.6 |
| 20260503202218 | 96 | 127 | 6.0 | 14.0 | 0.00 | 0.00 | 0.00 | 14 | 1008.7 |
| 20260503202126 | 96 | 139 | 6.0 | 14.0 | 0.00 | 0.00 | 0.00 | 14 | 1008.7 |
| 20260503202029 | 96 | 124 | 6.0 | 14.0 | 0.00 | 0.00 | 0.00 | 15 | 1008.7 |
| 20260503201936 | 96 | 109 | 6.0 | 14.0 | 0.00 | 0.00 | 0.00 | 15 | 1008.7 |
| 20260503201838 | 97 | 129 | 6.0 | 14.0 | 0.00 | 0.00 | 0.00 | 15 | 1008.6 |
| 20260503201727 | 97 | 137 | 5.0 | 14.0 | 0.00 | 0.00 | 0.00 | 15 | 1008.6 |
| 20260503201632 | 97 | 134 | 2.0 | 12.0 | 0.00 | 0.00 | 0.00 | 17 | 1008.6 |
| 20260503201534 | 97 | 144 | 4.0 | 12.0 | 0.00 | 0.00 | 0.00 | 15 | 1008.6 |
| 20260503201417 | 97 | 148 | 5.0 | 12.0 | 0.00 | 0.00 | 0.00 | 15 | 1008.7 |
| 20260503201346 | 97 | 103 | 2.0 | 10.0 | 0.00 | 0.00 | 0.00 | 17 | 1008.5 |
| 20260503201225 | 96 | 75 | 0.0 | 7.0 | 0.00 | 0.00 | 0.00 | 17 | 1008.6 |
| 20260503201134 | 96 | 75 | 0.0 | 7.0 | 0.00 | 0.00 | 0.00 | 18 | 1008.6 |
| 20260503201018 | 96 | 97 | 0.0 | 7.0 | 0.00 | 0.00 | 0.00 | 16 | 1008.7 |
| 20260503200940 | 95 | 89 | 0.0 | 11.0 | 0.00 | 0.00 | 0.00 | 17 | 1008.7 |
| 20260503200827 | 95 | 88 | 1.0 | 11.0 | 0.00 | 0.00 | 0.00 | 16 | 1008.7 |
| 20260503200737 | 95 | 76 | 2.0 | 11.0 | 0.00 | 0.00 | 0.00 | 15 | 1008.7 |
| 20260503200636 | 95 | 127 | 2.0 | 11.0 | 0.00 | 0.00 | 0.00 | 15 | 1008.8 |
| 20260503200545 | 95 | 131 | 2.0 | 11.0 | 0.00 | 0.00 | 0.00 | 16 | 1008.8 |
| 20260503200508 | 95 | 138 | 2.0 | 11.0 | 0.00 | 0.00 | 0.00 | 15 | 1008.8 |
| 20260503200355 | 95 | 150 | 2.0 | 11.0 | 0.00 | 0.00 | 0.00 | 16 | 1008.8 |
| 20260503200242 | 95 | 122 | 4.0 | 11.0 | 0.00 | 0.00 | 0.00 | 16 | 1008.8 |
| 20260503200122 | 95 | 122 | 5.0 | 11.0 | 0.00 | 0.00 | 0.00 | 15 | 1008.8 |
| 20260503200106 | 95 | 120 | 4.0 | 9.0 | 0.00 | 0.00 | 0.00 | 15 | 1008.8 |
| 20260503195916 | 95 | 167 | 3.0 | 9.0 | 0.00 | 0.00 | 0.00 | 17 | 1008.9 |
| 20260503195818 | 95 | 99 | 3.0 | 9.0 | 0.00 | 0.00 | 0.00 | 16 | 1008.9 |
| 20260503195726 | 95 | 162 | 2.0 | 9.0 | 0.00 | 0.00 | 0.00 | 16 | 1008.9 |
| 20260503195627 | 95 | 188 | 2.0 | 9.0 | 0.00 | 0.00 | 0.00 | 15 | 1009.0 |
| 20260503195530 | 95 | 149 | 2.0 | 9.0 | 0.00 | 0.00 | 0.00 | 16 | 1009.0 |
| 20260503195443 | 95 | 120 | 2.0 | 9.0 | 0.00 | 0.00 | 0.00 | 16 | 1009.1 |
| 20260503195344 | 95 | 120 | 3.0 | 9.0 | 0.00 | 0.00 | 0.00 | 16 | 1009.0 |
| 20260503195233 | 95 | 115 | 2.0 | 9.0 | 0.00 | 0.00 | 0.00 | 15 | 1009.1 |
| 20260503195135 | 95 | 115 | 3.0 | 9.0 | 0.00 | 0.00 | 0.00 | 16 | 1009.0 |
| 20260503195016 | 95 | 115 | 2.0 | 10.0 | 0.00 | 0.00 | 0.00 | 16 | 1009.0 |
| 20260503194918 | 95 | 115 | 1.0 | 10.0 | 0.00 | 0.00 | 0.00 | 18 | 1009.0 |
| 20260503194827 | 95 | 115 | 1.0 | 10.0 | 0.00 | 0.00 | 0.00 | 17 | 1009.0 |
| 20260503194734 | 95 | 115 | 1.0 | 10.0 | 0.00 | 0.00 | 0.00 | 18 | 1009.0 |
| 20260503194617 | 95 | 115 | 1.0 | 10.0 | 0.00 | 0.00 | 0.00 | 18 | 1009.0 |
| 20260503194527 | 95 | 108 | 2.0 | 10.0 | 0.00 | 0.00 | 0.00 | 19 | 1009.1 |
| 20260503194429 | 95 | 228 | 5.0 | 10.0 | 0.00 | 0.00 | 0.00 | 17 | 1009.1 |
| 20260503194331 | 95 | 151 | 5.0 | 10.0 | 0.00 | 0.00 | 0.00 | 17 | 1009.1 |
| 20260503194240 | 95 | 178 | 3.0 | 9.0 | 0.00 | 0.00 | 0.00 | 17 | 1009.2 |
| 20260503194145 | 95 | 136 | 2.0 | 9.0 | 0.00 | 0.00 | 0.00 | 17 | 1009.2 |
| 20260503194033 | 95 | 110 | 2.0 | 9.0 | 0.00 | 0.00 | 0.00 | 18 | 1009.2 |
| 20260503193934 | 95 | 110 | 3.0 | 9.0 | 0.00 | 0.00 | 0.00 | 17 | 1009.2 |
| 20260503193843 | 95 | 110 | 2.0 | 9.0 | 0.00 | 0.00 | 0.00 | 18 | 1009.2 |
| 20260503193725 | 95 | 112 | 2.0 | 9.0 | 0.00 | 0.00 | 0.00 | 17 | 1009.4 |
| 20260503193626 | 94 | 112 | 3.0 | 10.0 | 0.00 | 0.00 | 0.00 | 17 | 1009.2 |
| 20260503193528 | 94 | 123 | 4.0 | 10.0 | 0.00 | 0.00 | 0.00 | 18 | 1009.4 |
| 20260503193420 | 94 | 124 | 3.0 | 10.0 | 0.00 | 0.00 | 0.00 | 18 | 1009.4 |
| 20260503193320 | 94 | 132 | 1.0 | 10.0 | 0.00 | 0.00 | 0.00 | 18 | 1009.5 |
| 20260503193229 | 94 | 132 | 2.0 | 10.0 | 0.00 | 0.00 | 0.00 | 17 | 1009.4 |
| 20260503193131 | 94 | 133 | 5.0 | 10.0 | 0.00 | 0.00 | 0.00 | 17 | 1009.4 |
| 20260503193034 | 94 | 134 | 4.0 | 10.0 | 0.00 | 0.00 | 0.00 | 17 | 1009.5 |
| 20260503192915 | 94 | 128 | 3.0 | 10.0 | 0.00 | 0.00 | 0.00 | 17 | 1009.4 |
| 20260503192828 | 94 | 134 | 3.0 | 10.0 | 0.00 | 0.00 | 0.00 | 18 | 1009.4 |
| 20260503192728 | 94 | 119 | 2.0 | 11.0 | 0.00 | 0.00 | 0.00 | 18 | 1009.4 |
| 20260503192637 | 94 | 123 | 2.0 | 11.0 | 0.00 | 0.00 | 0.00 | 19 | 1009.5 |
| 20260503192539 | 94 | 109 | 2.0 | 13.0 | 0.00 | 0.00 | 0.00 | 19 | 1009.5 |
| 20260503192420 | 94 | 111 | 1.0 | 13.0 | 0.00 | 0.00 | 0.00 | 20 | 1009.5 |
| 20260503192327 | 94 | 85 | 1.0 | 13.0 | 0.00 | 0.00 | 0.00 | 20 | 1009.5 |
| 20260503192229 | 94 | 53 | 1.0 | 13.0 | 0.00 | 0.00 | 0.00 | 21 | 1009.5 |
| 20260503192121 | 94 | 90 | 3.0 | 13.0 | 0.00 | 0.00 | 0.00 | 19 | 1009.7 |
| 20260503192051 | 94 | 105 | 5.0 | 13.0 | 0.00 | 0.00 | 0.00 | 19 | 1009.8 |
| 20260503191932 | 94 | 80 | 6.0 | 13.0 | 0.00 | 0.00 | 0.00 | 19 | 1009.7 |
| 20260503191834 | 94 | 106 | 5.0 | 13.0 | 0.00 | 0.00 | 0.00 | 18 | 1009.6 |
| 20260503191715 | 94 | 126 | 2.0 | 13.0 | 0.00 | 0.00 | 0.00 | 19 | 1009.7 |
| 20260503191624 | 94 | 151 | 0.0 | 9.0 | 0.00 | 0.00 | 0.00 | 18 | 1009.7 |
| 20260503191528 | 94 | 146 | 1.0 | 9.0 | 0.00 | 0.00 | 0.00 | 19 | 1009.8 |
| 20260503191433 | 94 | 148 | 3.0 | 9.0 | 0.00 | 0.00 | 0.00 | 20 | 1009.8 |
| 20260503191226 | 93 | 150 | 2.0 | 9.0 | 0.00 | 0.00 | 0.00 | 20 | 1009.7 |
| 20260503191128 | 93 | 150 | 2.0 | 9.0 | 0.00 | 0.00 | 0.00 | 19 | 1009.8 |
| 20260503191030 | 93 | 150 | 2.0 | 9.0 | 0.00 | 0.00 | 0.00 | 21 | 1009.8 |
| 20260503190939 | 93 | 122 | 1.0 | 9.0 | 0.00 | 0.00 | 0.00 | 19 | 1009.8 |
| 20260503190824 | 92 | 122 | 2.0 | 8.0 | 0.00 | 0.00 | 0.00 | 19 | 1009.9 |
| 20260503190745 | 92 | 122 | 3.0 | 8.0 | 0.00 | 0.00 | 0.00 | 19 | 1009.8 |
| 20260503190634 | 92 | 122 | 2.0 | 8.0 | 0.00 | 0.00 | 0.00 | 19 | 1009.9 |
| 20260503190516 | 92 | 122 | 1.0 | 8.0 | 0.00 | 0.00 | 0.00 | 21 | 1009.9 |
| 20260503190417 | 92 | 122 | 1.0 | 8.0 | 0.00 | 0.00 | 0.00 | 23 | 1009.9 |
| 20260503190318 | 92 | 122 | 2.0 | 8.0 | 0.00 | 0.00 | 0.00 | 20 | 1010.0 |
| 20260503190232 | 92 | 122 | 2.0 | 8.0 | 0.00 | 0.00 | 0.00 | 21 | 1010.1 |
| 20260503190134 | 92 | 122 | 2.0 | 8.0 | 0.00 | 0.00 | 0.00 | 21 | 1010.1 |
| 20260503190032 | 92 | 122 | 3.0 | 8.0 | 0.00 | 0.00 | 0.00 | 20 | 1010.0 |
| 20260503185921 | 92 | 122 | 2.0 | 8.0 | 0.00 | 0.00 | 0.00 | 20 | 1010.1 |
| 20260503185828 | 92 | 123 | 2.0 | 8.0 | 0.00 | 0.00 | 0.00 | 22 | 1010.1 |
| 20260503185731 | 93 | 122 | 2.0 | 8.0 | 0.00 | 0.00 | 0.00 | 22 | 1010.1 |
| 20260503185618 | 92 | 120 | 2.0 | 13.0 | 0.00 | 0.00 | 0.00 | 22 | 1010.1 |
| 20260503185527 | 92 | 122 | 1.0 | 13.0 | 0.00 | 0.00 | 0.00 | 23 | 1010.1 |
| 20260503185430 | 92 | 122 | 1.0 | 13.0 | 0.00 | 0.00 | 0.00 | 23 | 1010.1 |
| 20260503185332 | 92 | 121 | 1.0 | 13.0 | 0.00 | 0.00 | 0.00 | 23 | 1010.1 |
| 20260503185240 | 92 | 121 | 2.0 | 13.0 | 0.00 | 0.00 | 0.00 | 22 | 1010.0 |
| 20260503185140 | 92 | 133 | 2.0 | 13.0 | 0.00 | 0.00 | 0.00 | 21 | 1010.1 |
| 20260503185048 | 92 | 133 | 3.0 | 13.0 | 0.00 | 0.00 | 0.00 | 22 | 1010.2 |
| 20260503184929 | 92 | 130 | 4.0 | 13.0 | 0.00 | 0.00 | 0.00 | 22 | 1010.2 |
| 20260503184819 | 92 | 134 | 4.0 | 13.0 | 0.00 | 0.00 | 0.00 | 22 | 1010.2 |
| 20260503184723 | 92 | 93 | 3.0 | 13.0 | 0.00 | 0.00 | 0.00 | 22 | 1010.2 |
| 20260503184624 | 92 | 122 | 4.0 | 10.0 | 0.00 | 0.00 | 0.00 | 22 | 1010.3 |
| 20260503184534 | 92 | 143 | 3.0 | 10.0 | 0.00 | 0.00 | 0.00 | 23 | 1010.3 |
| 20260503184416 | 92 | 127 | 1.0 | 10.0 | 0.00 | 0.00 | 0.00 | 23 | 1010.3 |
| 20260503184318 | 92 | 86 | 2.0 | 10.0 | 0.00 | 0.00 | 0.00 | 23 | 1010.2 |
| 20260503184229 | 92 | 84 | 3.0 | 10.0 | 0.00 | 0.00 | 0.00 | 25 | 1010.2 |
| 20260503184158 | 92 | 84 | 4.0 | 10.0 | 0.00 | 0.00 | 0.00 | 23 | 1010.2 |
| 20260503184019 | 92 | 122 | 3.0 | 8.0 | 0.00 | 0.00 | 0.00 | 24 | 1010.3 |
| 20260503183922 | 91 | 79 | 2.0 | 8.0 | 0.00 | 0.00 | 0.00 | 24 | 1010.2 |
| 20260503183824 | 91 | 88 | 1.0 | 8.0 | 0.00 | 0.00 | 0.00 | 24 | 1010.3 |
| 20260503183734 | 91 | 88 | 0.0 | 8.0 | 0.00 | 0.00 | 0.00 | 24 | 1010.3 |
| 20260503183620 | 91 | 85 | 1.0 | 8.0 | 0.00 | 0.00 | 0.00 | 25 | 1010.4 |
| 20260503183522 | 91 | 85 | 2.0 | 8.0 | 0.00 | 0.00 | 0.00 | 26 | 1010.4 |
| 20260503183424 | 91 | 77 | 2.0 | 8.0 | 0.00 | 0.00 | 0.00 | 24 | 1010.4 |
| 20260503183353 | 91 | 90 | 2.0 | 8.0 | 0.00 | 0.00 | 0.00 | 25 | 1010.4 |
| 20260503183233 | 91 | 100 | 2.0 | 8.0 | 0.00 | 0.00 | 0.00 | 24 | 1010.5 |
| 20260503183116 | 91 | 121 | 3.0 | 8.0 | 0.00 | 0.00 | 0.00 | 24 | 1010.5 |
| 20260503183024 | 91 | 129 | 3.0 | 8.0 | 0.00 | 0.00 | 0.00 | 24 | 1010.5 |
| 20260503182930 | 91 | 128 | 2.0 | 7.0 | 0.00 | 0.00 | 0.00 | 23 | 1010.5 |
| 20260503182831 | 92 | 141 | 2.0 | 7.0 | 0.00 | 0.00 | 0.00 | 25 | 1010.4 |
| 20260503182719 | 91 | 122 | 1.0 | 7.0 | 0.00 | 0.00 | 0.00 | 25 | 1010.4 |
| 20260503182639 | 91 | 86 | 1.0 | 7.0 | 0.00 | 0.00 | 0.00 | 26 | 1010.4 |
| 20260503182527 | 90 | 86 | 2.0 | 7.0 | 0.00 | 0.00 | 0.00 | 26 | 1010.5 |
| 20260503182430 | 90 | 139 | 3.0 | 7.0 | 0.00 | 0.00 | 0.00 | 25 | 1010.5 |
| 20260503182339 | 90 | 162 | 4.0 | 7.0 | 0.00 | 0.00 | 0.00 | 25 | 1010.7 |
| 20260503182223 | 90 | 165 | 3.0 | 7.0 | 0.00 | 0.00 | 0.00 | 25 | 1010.7 |
| 20260503182125 | 90 | 167 | 2.0 | 6.0 | 0.00 | 0.00 | 0.00 | 25 | 1010.7 |
| 20260503182035 | 90 | 120 | 1.0 | 6.0 | 0.00 | 0.00 | 0.00 | 25 | 1010.7 |
| 20260503181917 | 90 | 122 | 1.0 | 3.0 | 0.00 | 0.00 | 0.00 | 25 | 1010.7 |
| 20260503181819 | 90 | 123 | 0.0 | 3.0 | 0.00 | 0.00 | 0.00 | 27 | 1010.6 |
| 20260503181722 | 89 | 123 | 0.0 | 3.0 | 0.00 | 0.00 | 0.00 | 25 | 1010.7 |
| 20260503181634 | 89 | 123 | 0.0 | 3.0 | 0.00 | 0.00 | 0.00 | 27 | 1010.6 |
| 20260503181555 | 89 | 123 | 1.0 | 4.0 | 0.00 | 0.00 | 0.00 | 27 | 1010.7 |
| 20260503181444 | 89 | 123 | 1.0 | 8.0 | 0.00 | 0.00 | 0.00 | 26 | 1010.7 |
| 20260503181324 | 89 | 122 | 1.0 | 8.0 | 0.00 | 0.00 | 0.00 | 26 | 1010.7 |
| 20260503181235 | 89 | 122 | 1.0 | 8.0 | 0.00 | 0.00 | 0.00 | 25 | 1010.8 |
| 20260503181135 | 89 | 122 | 1.0 | 8.0 | 0.00 | 0.00 | 0.00 | 27 | 1010.8 |
| 20260503181020 | 89 | 123 | 0.0 | 8.0 | 0.00 | 0.00 | 0.00 | 26 | 1010.8 |
| 20260503180923 | 89 | 123 | 1.0 | 8.0 | 0.00 | 0.00 | 0.00 | 26 | 1010.8 |
| 20260503180850 | 89 | 123 | 1.0 | 8.0 | 0.00 | 0.00 | 0.00 | 26 | 1010.8 |
| 20260503180731 | 89 | 122 | 3.0 | 8.0 | 0.00 | 0.00 | 0.00 | 26 | 1010.8 |
| 20260503180640 | 88 | 125 | 3.0 | 8.0 | 0.00 | 0.00 | 0.00 | 26 | 1010.8 |
| 20260503180522 | 89 | 127 | 1.0 | 8.0 | 0.00 | 0.00 | 0.00 | 26 | 1010.9 |
| 20260503180445 | 89 | 126 | 2.0 | 8.0 | 0.00 | 0.00 | 0.00 | 27 | 1011.0 |
| 20260503180336 | 89 | 127 | 2.0 | 8.0 | 0.00 | 0.00 | 0.00 | 26 | 1011.0 |
| 20260503180217 | 88 | 112 | 1.0 | 8.0 | 0.00 | 0.00 | 0.00 | 27 | 1011.0 |
| 20260503180119 | 88 | 112 | 1.0 | 10.0 | 0.00 | 0.00 | 0.00 | 26 | 1011.0 |
| 20260503180100 | 88 | 111 | 2.0 | 10.0 | 0.00 | 0.00 | 0.00 | 26 | 1011.0 |
| 20260503175937 | 88 | 101 | 2.0 | 10.0 | 0.00 | 0.00 | 0.00 | 26 | 1011.0 |
| 20260503175819 | 87 | 112 | 1.0 | 10.0 | 0.00 | 0.00 | 0.00 | 27 | 1011.0 |
| 20260503175722 | 87 | 120 | 3.0 | 10.0 | 0.00 | 0.00 | 0.00 | 27 | 1011.1 |
| 20260503175629 | 87 | 120 | 3.0 | 10.0 | 0.00 | 0.00 | 0.00 | 26 | 1011.2 |
| 20260503175538 | 87 | 143 | 3.0 | 10.0 | 0.00 | 0.00 | 0.00 | 27 | 1011.1 |
| 20260503175447 | 88 | 148 | 4.0 | 10.0 | 0.00 | 0.00 | 0.00 | 27 | 1011.2 |
| 20260503175328 | 87 | 127 | 3.0 | 10.0 | 0.00 | 0.00 | 0.00 | 26 | 1011.2 |
| 20260503175229 | 88 | 125 | 2.0 | 10.0 | 0.00 | 0.00 | 0.00 | 26 | 1011.2 |
| 20260503175117 | 88 | 109 | 3.0 | 10.0 | 0.00 | 0.00 | 0.00 | 25 | 1011.1 |
| 20260503175018 | 88 | 111 | 5.0 | 10.0 | 0.00 | 0.00 | 0.00 | 25 | 1011.2 |
| 20260503174951 | 88 | 124 | 5.0 | 10.0 | 0.00 | 0.00 | 0.00 | 25 | 1011.1 |
| 20260503174852 | 88 | 129 | 2.0 | 9.0 | 0.00 | 0.00 | 0.00 | 26 | 1011.2 |
| 20260503174739 | 88 | 120 | 2.0 | 10.0 | 0.00 | 0.00 | 0.00 | 26 | 1011.2 |
| 20260503174641 | 88 | 107 | 3.0 | 10.0 | 0.00 | 0.00 | 0.00 | 26 | 1011.1 |
| 20260503174522 | 88 | 135 | 2.0 | 10.0 | 0.00 | 0.00 | 0.00 | 26 | 1011.1 |
| 20260503174431 | 88 | 148 | 3.0 | 10.0 | 0.00 | 0.00 | 0.00 | 26 | 1011.1 |
| 20260503174332 | 88 | 149 | 3.0 | 10.0 | 0.00 | 0.00 | 0.00 | 26 | 1011.0 |
| 20260503174225 | 88 | 150 | 2.0 | 10.0 | 0.00 | 0.00 | 0.00 | 26 | 1011.1 |
| 20260503174125 | 88 | 120 | 2.0 | 10.0 | 0.00 | 0.00 | 0.00 | 26 | 1011.0 |
| 20260503174028 | 88 | 98 | 3.0 | 10.0 | 0.00 | 0.00 | 0.00 | 26 | 1011.0 |
| 20260503173936 | 88 | 107 | 3.0 | 9.0 | 0.00 | 0.00 | 0.00 | 26 | 1011.1 |
| 20260503173837 | 88 | 120 | 2.0 | 8.0 | 0.00 | 0.00 | 0.00 | 26 | 1011.1 |
| 20260503173718 | 88 | 113 | 1.0 | 8.0 | 0.00 | 0.00 | 0.00 | 26 | 1011.1 |
| 20260503173626 | 87 | 114 | 2.0 | 10.0 | 0.00 | 0.00 | 0.00 | 26 | 1011.1 |
| 20260503173534 | 87 | 115 | 2.0 | 10.0 | 0.00 | 0.00 | 0.00 | 26 | 1011.2 |
| 20260503173419 | 87 | 112 | 2.0 | 10.0 | 0.00 | 0.00 | 0.00 | 25 | 1011.2 |
| 20260503173340 | 87 | 113 | 2.0 | 10.0 | 0.00 | 0.00 | 0.00 | 25 | 1011.3 |
| 20260503173249 | 87 | 115 | 3.0 | 11.0 | 0.00 | 0.00 | 0.00 | 26 | 1011.2 |
| 20260503173130 | 87 | 123 | 3.0 | 11.0 | 0.00 | 0.00 | 0.00 | 26 | 1011.2 |
| 20260503173038 | 87 | 118 | 3.0 | 14.0 | 0.00 | 0.00 | 0.00 | 26 | 1011.1 |
| 20260503172920 | 87 | 115 | 4.0 | 14.0 | 0.00 | 0.00 | 0.00 | 26 | 1011.1 |
| 20260503172820 | 87 | 113 | 4.0 | 14.0 | 0.00 | 0.00 | 0.00 | 26 | 1011.2 |
| 20260503172732 | 87 | 130 | 3.0 | 14.0 | 0.00 | 0.00 | 0.00 | 26 | 1011.1 |
| 20260503172633 | 87 | 113 | 3.0 | 14.0 | 0.00 | 0.00 | 0.00 | 26 | 1011.1 |
| 20260503172543 | 87 | 107 | 5.0 | 14.0 | 0.00 | 0.00 | 0.00 | 26 | 1011.1 |
| 20260503172421 | 87 | 117 | 5.0 | 14.0 | 0.00 | 0.00 | 0.00 | 26 | 1011.1 |
| 20260503172322 | 87 | 96 | 4.0 | 14.0 | 0.00 | 0.00 | 0.00 | 27 | 1011.1 |
| 20260503172252 | 87 | 102 | 6.0 | 14.0 | 0.00 | 0.00 | 0.00 | 26 | 1011.0 |
| 20260503172117 | 87 | 117 | 5.0 | 12.0 | 0.00 | 0.00 | 0.00 | 26 | 1011.1 |
| 20260503172019 | 87 | 115 | 3.0 | 12.0 | 0.00 | 0.00 | 0.00 | 27 | 1011.1 |
| 20260503171927 | 87 | 132 | 3.0 | 12.0 | 0.00 | 0.00 | 0.00 | 26 | 1011.1 |
| 20260503171828 | 87 | 125 | 4.0 | 12.0 | 0.00 | 0.00 | 0.00 | 26 | 1011.1 |
| 20260503171737 | 87 | 112 | 5.0 | 12.0 | 0.00 | 0.00 | 0.00 | 26 | 1011.1 |
| 20260503171619 | 87 | 118 | 5.0 | 12.0 | 0.00 | 0.00 | 0.00 | 27 | 1011.2 |
| 20260503171521 | 87 | 136 | 4.0 | 9.0 | 0.00 | 0.00 | 0.00 | 27 | 1011.2 |
| 20260503171435 | 87 | 141 | 3.0 | 12.0 | 0.00 | 0.00 | 0.00 | 27 | 1011.2 |
| 20260503171317 | 87 | 118 | 2.0 | 12.0 | 0.00 | 0.00 | 0.00 | 26 | 1011.2 |
| 20260503171217 | 87 | 120 | 2.0 | 12.0 | 0.00 | 0.00 | 0.00 | 26 | 1011.3 |
| 20260503171116 | 87 | 122 | 2.0 | 12.0 | 0.00 | 0.00 | 0.00 | 26 | 1011.3 |
| 20260503171025 | 87 | 123 | 2.0 | 12.0 | 0.00 | 0.00 | 0.00 | 27 | 1011.3 |
| 20260503170926 | 87 | 130 | 2.0 | 12.0 | 0.00 | 0.00 | 0.00 | 27 | 1011.2 |
| 20260503170832 | 87 | 122 | 3.0 | 12.0 | 0.00 | 0.00 | 0.00 | 27 | 1011.2 |
| 20260503170739 | 86 | 115 | 4.0 | 12.0 | 0.00 | 0.00 | 0.00 | 27 | 1011.2 |
| 20260503170622 | 87 | 140 | 4.0 | 12.0 | 0.00 | 0.00 | 0.00 | 26 | 1011.3 |
| 20260503170523 | 87 | 132 | 3.0 | 9.0 | 0.00 | 0.00 | 0.00 | 26 | 1011.2 |
| 20260503170431 | 87 | 134 | 3.0 | 9.0 | 0.00 | 0.00 | 0.00 | 26 | 1011.3 |
| 20260503170332 | 87 | 132 | 4.0 | 9.0 | 0.00 | 0.00 | 0.00 | 26 | 1011.3 |
| 20260503170217 | 87 | 125 | 3.0 | 9.0 | 0.00 | 0.00 | 0.00 | 26 | 1011.3 |
| 20260503170126 | 87 | 134 | 3.0 | 9.0 | 0.00 | 0.00 | 0.00 | 26 | 1011.3 |
| 20260503160144 | 81 | 122 | 2.0 | 5.0 | 0.00 | 0.00 | 0.00 | 33 | 1011.2 |